Observation data for Lake McClellan 2NW on 07/04/2020      Previous  Date  Next       Current Mesonet Observations  Soil Data  Daily Summary Page  Observations in Plain Language
KMC5 040500Z 17006KT 27/16 A301 RMK A01 T02710160  RH  051%=      5-min Rain = 0
KMC5 040501Z 17006KT 27/16 A301 RMK A01 T02710161  RH  051%=      5-min Rain = 0
KMC5 040502Z 17006KT 27/16 A301 RMK A01 T02700161  RH  051%=      5-min Rain = 0
KMC5 040503Z 17006KT 27/16 A301 RMK A01 T02690162  RH  052%=      5-min Rain = 0
KMC5 040504Z 17007KT 27/16 A301 RMK A01 T02680160  RH  051%=      5-min Rain = 0
KMC5 040505Z 17007KT 27/16 A301 RMK A01 T02690161  RH  051%=      5-min Rain = 0
KMC5 040506Z 18007KT 27/16 A301 RMK A01 T02690161  RH  051%=      5-min Rain = 0
KMC5 040507Z 19006KT 27/16 A301 RMK A01 T02690161  RH  051%=      5-min Rain = 0
KMC5 040508Z 18007KT 27/16 A301 RMK A01 T02690161  RH  051%=      5-min Rain = 0
KMC5 040509Z 18007KT 27/16 A301 RMK A01 T02700161  RH  051%=      5-min Rain = 0
KMC5 040510Z 18007KT 27/16 A301 RMK A01 T02700161  RH  051%=      5-min Rain = 0
KMC5 040511Z 18007KT 27/16 A301 RMK A01 T02700162  RH  052%=      5-min Rain = 0
KMC5 040512Z 18007KT 27/16 A301 RMK A01 T02690162  RH  052%=      5-min Rain = 0
KMC5 040513Z 18007KT 27/16 A301 RMK A01 T02680163  RH  052%=      5-min Rain = 0
KMC5 040514Z 18007KT 27/16 A301 RMK A01 T02680162  RH  052%=      5-min Rain = 0
KMC5 040515Z 18007KT 27/16 A301 RMK A01 T02680162  RH  052%=      5-min Rain = 0
KMC5 040516Z 18007KT 27/16 A301 RMK A01 T02680162  RH  052%=      5-min Rain = 0
KMC5 040517Z 18007KT 27/16 A301 RMK A01 T02680162  RH  052%=      5-min Rain = 0
KMC5 040518Z 18008KT 27/16 A301 RMK A01 T02680163  RH  053%=      5-min Rain = 0
KMC5 040519Z 18007KT 27/16 A301 RMK A01 T02680162  RH  052%=      5-min Rain = 0
KMC5 040520Z 18007KT 27/16 A301 RMK A01 T02680162  RH  052%=      5-min Rain = 0
KMC5 040521Z 18007KT 27/16 A301 RMK A01 T02680162  RH  052%=      5-min Rain = 0
KMC5 040522Z 19006KT 27/16 A301 RMK A01 T02680162  RH  052%=      5-min Rain = 0
KMC5 040523Z 18006KT 27/16 A301 RMK A01 T02680162  RH  052%=      5-min Rain = 0
KMC5 040524Z 18006KT 27/16 A301 RMK A01 T02680162  RH  052%=      5-min Rain = 0
KMC5 040525Z 19006KT 27/16 A301 RMK A01 T02680163  RH  052%=      5-min Rain = 0
KMC5 040526Z 19006KT 27/16 A301 RMK A01 T02680162  RH  052%=      5-min Rain = 0
KMC5 040527Z 20005KT 27/16 A301 RMK A01 T02670163  RH  053%=      5-min Rain = 0
KMC5 040528Z 21005KT 27/16 A301 RMK A01 T02670163  RH  053%=      5-min Rain = 0
KMC5 040529Z 22004KT 27/16 A3011 RMK A01 T02670163  RH  053%=      5-min Rain = 0
KMC5 040530Z 24003KT 27/16 A3011 RMK A01 T02670163  RH  053%=      5-min Rain = 0
KMC5 040531Z 27004KT 27/16 A3011 RMK A01 T02660164  RH  054%=      5-min Rain = 0
KMC5 040532Z 29005KT 27/16 A3011 RMK A01 T02650164  RH  054%=      5-min Rain = 0
KMC5 040533Z 30007KT 26/17 A3011 RMK A01 T02640165  RH  054%=      5-min Rain = 0
KMC5 040534Z 30008KT 26/17 A3011 RMK A01 T02630167  RH  055%=      5-min Rain = 0
KMC5 040535Z 31010KT 26/17 A3011 RMK A01 T02610167  RH  056%=      5-min Rain = 0
KMC5 040536Z 31010KT 26/17 A3011 RMK A01 T02600168  RH  057%=      5-min Rain = 0
KMC5 040537Z 30011KT 26/17 A3011 RMK A01 T02590167  RH  057%=      5-min Rain = 0
KMC5 040538Z 31013KT 26/17 A3011 RMK A01 T02590166  RH  056%=      5-min Rain = 0
KMC5 040539Z 31013KT 26/17 A3011 RMK A01 T02610165  RH  055%=      5-min Rain = 0
KMC5 040540Z 31014KT 26/16 A3011 RMK A01 T02630163  RH  054%=      5-min Rain = 0
KMC5 040541Z 31015KT 27/16 A3011 RMK A01 T02650163  RH  053%=      5-min Rain = 0
KMC5 040542Z 32016KT 27/16 A3011 RMK A01 T02660157  RH  051%=      5-min Rain = 0
KMC5 040543Z 33017KT 27/15 A3011 RMK A01 T02660152  RH  050%=      5-min Rain = 0
KMC5 040544Z 34013KT 27/15 A3011 RMK A01 T02660148  RH  048%=      5-min Rain = 0
KMC5 040545Z 33014KT 27/15 A3012 RMK A01 T02660145  RH  047%=      5-min Rain = 0
KMC5 040546Z 33014KT 27/14 A3012 RMK A01 T02650142  RH  047%=      5-min Rain = 0
KMC5 040547Z 34015KT 26/14 A3012 RMK A01 T02640140  RH  046%=      5-min Rain = 0
KMC5 040548Z 34015KT 26/14 A3012 RMK A01 T02640140  RH  046%=      5-min Rain = 0
KMC5 040549Z 35015KT 26/14 A3012 RMK A01 T02630140  RH  047%=      5-min Rain = 0
KMC5 040550Z 35014KT 26/14 A3012 RMK A01 T02630140  RH  047%=      5-min Rain = 0
KMC5 040551Z 34013KT 26/14 A3012 RMK A01 T02630142  RH  047%=      5-min Rain = 0
KMC5 040552Z 34013KT 26/14 A3012 RMK A01 T02620142  RH  047%=      5-min Rain = 0
KMC5 040553Z 34014KT 26/14 A3012 RMK A01 T02620141  RH  047%=      5-min Rain = 0
KMC5 040554Z 34011KT 26/14 A3012 RMK A01 T02630142  RH  047%=      5-min Rain = 0
KMC5 040555Z 35010KT 26/14 A3012 RMK A01 T02630141  RH  047%=      5-min Rain = 0
KMC5 040556Z 35007KT 27/15 A3012 RMK A01 T02650145  RH  048%=      5-min Rain = 0
KMC5 040557Z 33003KT 27/15 A3012 RMK A01 T02660145  RH  047%=      5-min Rain = 0
KMC5 040558Z 25002KT 27/15 A3012 RMK A01 T02700146  RH  047%=      5-min Rain = 0
KMC5 040559Z 34001KT 28/15 A3012 RMK A01 T02750146  RH  045%=      5-min Rain = 0
KMC5 040600Z 35003KT 28/15 A3012 RMK A01 T02760146  RH  045%=      5-min Rain = 0
KMC5 040601Z 00004KT 28/15 A3012 RMK A01 T02750146  RH  045%=      5-min Rain = 0
KMC5 040602Z 00008KT 27/15 A3012 RMK A01 T02720145  RH  046%=      5-min Rain = 0
KMC5 040603Z 35009KT 27/14 A3012 RMK A01 T02690144  RH  046%=      5-min Rain = 0
KMC5 040604Z 35009KT 27/14 A3012 RMK A01 T02660144  RH  047%=      5-min Rain = 0
KMC5 040605Z 35008KT 26/15 A3012 RMK A01 T02640145  RH  048%=      5-min Rain = 0
KMC5 040606Z 35010KT 26/15 A3012 RMK A01 T02630146  RH  048%=      5-min Rain = 0
KMC5 040607Z 00011KT 26/15 A3012 RMK A01 T02610146  RH  049%=      5-min Rain = 0
KMC5 040608Z 36011KT 26/15 A3012 RMK A01 T02610145  RH  049%=      5-min Rain = 0
KMC5 040609Z 00010KT 26/14 A3012 RMK A01 T02600144  RH  049%=      5-min Rain = 0
KMC5 040610Z 00010KT 26/14 A3012 RMK A01 T02580142  RH  049%=      5-min Rain = 0
KMC5 040611Z 01010KT 26/14 A3012 RMK A01 T02570141  RH  049%=      5-min Rain = 0
KMC5 040612Z 01010KT 26/14 A3012 RMK A01 T02560140  RH  049%=      5-min Rain = 0
KMC5 040613Z 01011KT 26/14 A3012 RMK A01 T02550139  RH  049%=      5-min Rain = 0
KMC5 040614Z 01009KT 26/14 A3012 RMK A01 T02550137  RH  048%=      5-min Rain = 0
KMC5 040615Z 01009KT 26/14 A3012 RMK A01 T02550138  RH  048%=      5-min Rain = 0
KMC5 040616Z 02008KT 25/14 A3012 RMK A01 T02540136  RH  048%=      5-min Rain = 0
KMC5 040617Z 02007KT 25/14 A3012 RMK A01 T02540137  RH  048%=      5-min Rain = 0
KMC5 040618Z 02006KT 25/14 A3012 RMK A01 T02540138  RH  049%=      5-min Rain = 0
KMC5 040619Z 02006KT 25/14 A3012 RMK A01 T02530138  RH  049%=      5-min Rain = 0
KMC5 040620Z 01007KT 25/14 A3012 RMK A01 T02510138  RH  049%=      5-min Rain = 0
KMC5 040621Z 00007KT 25/14 A3012 RMK A01 T02510138  RH  049%=      5-min Rain = 0
KMC5 040622Z 00007KT 25/14 A3011 RMK A01 T02500139  RH  050%=      5-min Rain = 0
KMC5 040623Z 00007KT 25/14 A3011 RMK A01 T02500139  RH  050%=      5-min Rain = 0
KMC5 040624Z 01007KT 25/14 A3011 RMK A01 T02490139  RH  050%=      5-min Rain = 0
KMC5 040625Z 01007KT 25/14 A3012 RMK A01 T02490139  RH  050%=      5-min Rain = 0
KMC5 040626Z 01008KT 25/14 A3012 RMK A01 T02480138  RH  050%=      5-min Rain = 0
KMC5 040627Z 02008KT 25/14 A3012 RMK A01 T02480138  RH  050%=      5-min Rain = 0
KMC5 040628Z 01009KT 25/14 A3011 RMK A01 T02480137  RH  050%=      5-min Rain = 0
KMC5 040629Z 01007KT 25/14 A3012 RMK A01 T02480136  RH  050%=      5-min Rain = 0
KMC5 040630Z 02007KT 25/14 A3012 RMK A01 T02480136  RH  050%=      5-min Rain = 0
KMC5 040631Z 02006KT 25/14 A3011 RMK A01 T02480137  RH  050%=      5-min Rain = 0
KMC5 040632Z 02007KT 25/14 A3011 RMK A01 T02480138  RH  051%=      5-min Rain = 0
KMC5 040633Z 03006KT 25/14 A3011 RMK A01 T02470139  RH  051%=      5-min Rain = 0
KMC5 040634Z 02007KT 25/14 A3011 RMK A01 T02460139  RH  051%=      5-min Rain = 0
KMC5 040635Z 02007KT 25/14 A3011 RMK A01 T02460138  RH  051%=      5-min Rain = 0
KMC5 040636Z 02007KT 25/14 A3011 RMK A01 T02450137  RH  051%=      5-min Rain = 0
KMC5 040637Z 02007KT 25/14 A3011 RMK A01 T02450138  RH  051%=      5-min Rain = 0
KMC5 040638Z 02006KT 25/14 A3011 RMK A01 T02450138  RH  051%=      5-min Rain = 0
KMC5 040639Z 02005KT 25/14 A3011 RMK A01 T02450138  RH  051%=      5-min Rain = 0
KMC5 040640Z 02005KT 24/14 A3012 RMK A01 T02440138  RH  051%=      5-min Rain = 0
KMC5 040641Z 03005KT 24/14 A3012 RMK A01 T02440138  RH  052%=      5-min Rain = 0
KMC5 040642Z 02005KT 24/14 A3012 RMK A01 T02440138  RH  052%=      5-min Rain = 0
KMC5 040643Z 03005KT 24/14 A3012 RMK A01 T02430138  RH  052%=      5-min Rain = 0
KMC5 040644Z 03005KT 24/14 A3012 RMK A01 T02430139  RH  052%=      5-min Rain = 0
KMC5 040645Z 04005KT 24/14 A3012 RMK A01 T02430139  RH  052%=      5-min Rain = 0
KMC5 040646Z 04005KT 24/14 A3012 RMK A01 T02420139  RH  052%=      5-min Rain = 0
KMC5 040647Z 04005KT 24/14 A3012 RMK A01 T02420139  RH  052%=      5-min Rain = 0
KMC5 040648Z 04005KT 24/14 A3012 RMK A01 T02420139  RH  052%=      5-min Rain = 0
KMC5 040649Z 05005KT 24/14 A3012 RMK A01 T02420139  RH  053%=      5-min Rain = 0
KMC5 040650Z 05005KT 24/14 A3012 RMK A01 T02420139  RH  053%=      5-min Rain = 0
KMC5 040651Z 06004KT 24/14 A3012 RMK A01 T02410140  RH  053%=      5-min Rain = 0
KMC5 040652Z 05004KT 24/14 A3012 RMK A01 T02410139  RH  053%=      5-min Rain = 0
KMC5 040653Z 06004KT 24/14 A3012 RMK A01 T02410137  RH  052%=      5-min Rain = 0
KMC5 040654Z 05004KT 24/14 A3012 RMK A01 T02410138  RH  053%=      5-min Rain = 0
KMC5 040655Z 04004KT 24/14 A3012 RMK A01 T02410140  RH  053%=      5-min Rain = 0
KMC5 040656Z 04005KT 24/14 A3012 RMK A01 T02410139  RH  053%=      5-min Rain = 0
KMC5 040657Z 03005KT 24/14 A3012 RMK A01 T02410139  RH  053%=      5-min Rain = 0
KMC5 040658Z 03006KT 24/14 A3012 RMK A01 T02410138  RH  053%=      5-min Rain = 0
KMC5 040659Z 03005KT 24/14 A3012 RMK A01 T02410139  RH  053%=      5-min Rain = 0
KMC5 040700Z 02006KT 24/14 A3012 RMK A01 T02410140  RH  053%=      5-min Rain = 0
KMC5 040701Z 03006KT 24/14 A3012 RMK A01 T02410140  RH  053%=      5-min Rain = 0
KMC5 040702Z 03006KT 24/14 A3012 RMK A01 T02400140  RH  054%=      5-min Rain = 0
KMC5 040703Z 03006KT 24/14 A3012 RMK A01 T02400141  RH  054%=      5-min Rain = 0
KMC5 040704Z 03005KT 24/14 A3012 RMK A01 T02390141  RH  054%=      5-min Rain = 0
KMC5 040705Z 03005KT 24/14 A3012 RMK A01 T02390140  RH  054%=      5-min Rain = 0
KMC5 040706Z 03005KT 24/14 A3012 RMK A01 T02390140  RH  054%=      5-min Rain = 0
KMC5 040707Z 03004KT 24/14 A3012 RMK A01 T02390139  RH  053%=      5-min Rain = 0
KMC5 040708Z 03004KT 24/14 A3012 RMK A01 T02390140  RH  054%=      5-min Rain = 0
KMC5 040709Z 03004KT 24/14 A3011 RMK A01 T02390140  RH  054%=      5-min Rain = 0
KMC5 040710Z 04004KT 24/14 A3011 RMK A01 T02390142  RH  054%=      5-min Rain = 0
KMC5 040711Z 04004KT 24/14 A3011 RMK A01 T02390142  RH  055%=      5-min Rain = 0
KMC5 040712Z 04004KT 24/14 A3011 RMK A01 T02380143  RH  055%=      5-min Rain = 0
KMC5 040713Z 04005KT 24/14 A3011 RMK A01 T02380143  RH  055%=      5-min Rain = 0
KMC5 040714Z 04005KT 24/14 A3011 RMK A01 T02370142  RH  055%=      5-min Rain = 0
KMC5 040715Z 05005KT 24/14 A3011 RMK A01 T02370143  RH  055%=      5-min Rain = 0
KMC5 040716Z 05005KT 24/14 A3011 RMK A01 T02370144  RH  056%=      5-min Rain = 0
KMC5 040717Z 04006KT 24/14 A3011 RMK A01 T02370143  RH  056%=      5-min Rain = 0
KMC5 040718Z 04005KT 24/14 A3011 RMK A01 T02370144  RH  056%=      5-min Rain = 0
KMC5 040719Z 04006KT 24/15 A3011 RMK A01 T02370146  RH  057%=      5-min Rain = 0
KMC5 040720Z 04006KT 24/15 A3011 RMK A01 T02360147  RH  057%=      5-min Rain = 0
KMC5 040721Z 04006KT 24/15 A3011 RMK A01 T02350148  RH  058%=      5-min Rain = 0
KMC5 040722Z 04007KT 23/15 A3011 RMK A01 T02340148  RH  058%=      5-min Rain = 0
KMC5 040723Z 04007KT 23/15 A3012 RMK A01 T02330147  RH  058%=      5-min Rain = 0
KMC5 040724Z 04008KT 23/15 A3012 RMK A01 T02330146  RH  058%=      5-min Rain = 0
KMC5 040725Z 04008KT 23/14 A3012 RMK A01 T02330144  RH  057%=      5-min Rain = 0
KMC5 040726Z 04008KT 23/14 A3012 RMK A01 T02340144  RH  057%=      5-min Rain = 0
KMC5 040727Z 05008KT 23/14 A3012 RMK A01 T02340144  RH  057%=      5-min Rain = 0
KMC5 040728Z 05007KT 23/15 A3012 RMK A01 T02340145  RH  057%=      5-min Rain = 0
KMC5 040729Z 05007KT 23/15 A3012 RMK A01 T02340146  RH  058%=      5-min Rain = 0
KMC5 040730Z 06007KT 23/15 A3012 RMK A01 T02330147  RH  058%=      5-min Rain = 0
KMC5 040731Z 05006KT 23/15 A3012 RMK A01 T02330147  RH  058%=      5-min Rain = 0
KMC5 040732Z 05006KT 23/15 A3011 RMK A01 T02330146  RH  058%=      5-min Rain = 0
KMC5 040733Z 05007KT 23/14 A3011 RMK A01 T02330144  RH  057%=      5-min Rain = 0
KMC5 040734Z 05007KT 23/14 A3011 RMK A01 T02330144  RH  057%=      5-min Rain = 0
KMC5 040735Z 05006KT 23/14 A3011 RMK A01 T02340144  RH  057%=      5-min Rain = 0
KMC5 040736Z 05006KT 24/14 A3011 RMK A01 T02350144  RH  056%=      5-min Rain = 0
KMC5 040737Z 05007KT 24/14 A3011 RMK A01 T02350144  RH  056%=      5-min Rain = 0
KMC5 040738Z 05006KT 24/14 A3011 RMK A01 T02360143  RH  056%=      5-min Rain = 0
KMC5 040739Z 05006KT 24/14 A3011 RMK A01 T02360144  RH  056%=      5-min Rain = 0
KMC5 040740Z 05006KT 24/15 A3011 RMK A01 T02360145  RH  057%=      5-min Rain = 0
KMC5 040741Z 04006KT 24/14 A3011 RMK A01 T02360143  RH  056%=      5-min Rain = 0
KMC5 040742Z 05006KT 24/14 A3011 RMK A01 T02370142  RH  056%=      5-min Rain = 0
KMC5 040743Z 05006KT 24/14 A3011 RMK A01 T02370143  RH  055%=      5-min Rain = 0
KMC5 040744Z 05006KT 24/14 A3011 RMK A01 T02370143  RH  056%=      5-min Rain = 0
KMC5 040745Z 05007KT 24/14 A3011 RMK A01 T02370144  RH  056%=      5-min Rain = 0
KMC5 040746Z 05007KT 24/14 A3011 RMK A01 T02370144  RH  056%=      5-min Rain = 0
KMC5 040747Z 05006KT 24/15 A3011 RMK A01 T02370145  RH  056%=      5-min Rain = 0
KMC5 040748Z 05007KT 24/15 A3011 RMK A01 T02360146  RH  057%=      5-min Rain = 0
KMC5 040749Z 05007KT 24/15 A3011 RMK A01 T02350146  RH  057%=      5-min Rain = 0
KMC5 040750Z 05007KT 24/15 A3011 RMK A01 T02350145  RH  057%=      5-min Rain = 0
KMC5 040751Z 05007KT 24/15 A3011 RMK A01 T02350145  RH  057%=      5-min Rain = 0
KMC5 040752Z 05007KT 24/15 A3011 RMK A01 T02350146  RH  057%=      5-min Rain = 0
KMC5 040753Z 05007KT 24/15 A3011 RMK A01 T02350146  RH  057%=      5-min Rain = 0
KMC5 040754Z 05007KT 24/15 A3011 RMK A01 T02350146  RH  057%=      5-min Rain = 0
KMC5 040755Z 05007KT 24/15 A3011 RMK A01 T02350146  RH  057%=      5-min Rain = 0
KMC5 040756Z 05007KT 24/15 A301 RMK A01 T02350145  RH  057%=      5-min Rain = 0
KMC5 040757Z 05007KT 24/15 A301 RMK A01 T02350146  RH  057%=      5-min Rain = 0
KMC5 040758Z 04007KT 24/15 A301 RMK A01 T02350146  RH  057%=      5-min Rain = 0
KMC5 040759Z 04008KT 24/15 A3011 RMK A01 T02350146  RH  057%=      5-min Rain = 0
KMC5 040800Z 04008KT 24/15 A3011 RMK A01 T02350147  RH  058%=      5-min Rain = 0
KMC5 040801Z 04008KT 23/15 A3011 RMK A01 T02340148  RH  058%=      5-min Rain = 0
KMC5 040802Z 04007KT 23/15 A3011 RMK A01 T02340147  RH  058%=      5-min Rain = 0
KMC5 040803Z 03008KT 23/15 A3011 RMK A01 T02340147  RH  058%=      5-min Rain = 0
KMC5 040804Z 03008KT 23/15 A3011 RMK A01 T02340148  RH  058%=      5-min Rain = 0
KMC5 040805Z 03009KT 23/15 A3011 RMK A01 T02330148  RH  058%=      5-min Rain = 0
KMC5 040806Z 03009KT 23/15 A3011 RMK A01 T02330146  RH  058%=      5-min Rain = 0
KMC5 040807Z 03009KT 23/15 A3011 RMK A01 T02330147  RH  058%=      5-min Rain = 0
KMC5 040808Z 03009KT 23/15 A3011 RMK A01 T02330147  RH  058%=      5-min Rain = 0
KMC5 040809Z 03008KT 23/15 A3011 RMK A01 T02330147  RH  059%=      5-min Rain = 0
KMC5 040810Z 03008KT 23/15 A3011 RMK A01 T02330148  RH  059%=      5-min Rain = 0
KMC5 040811Z 02008KT 23/15 A3011 RMK A01 T02320148  RH  059%=      5-min Rain = 0
KMC5 040812Z 02008KT 23/15 A3011 RMK A01 T02320148  RH  059%=      5-min Rain = 0
KMC5 040813Z 02009KT 23/15 A3011 RMK A01 T02320147  RH  059%=      5-min Rain = 0
KMC5 040814Z 02010KT 23/15 A3012 RMK A01 T02320148  RH  059%=      5-min Rain = 0
KMC5 040815Z 02011KT 23/15 A3012 RMK A01 T02320149  RH  060%=      5-min Rain = 0
KMC5 040816Z 02013KT 23/15 A3012 RMK A01 T02310149  RH  060%=      5-min Rain = 0
KMC5 040817Z 02013KT 23/15 A3012 RMK A01 T02320149  RH  060%=      5-min Rain = 0
KMC5 040818Z 02013KT 23/15 A3012 RMK A01 T02310147  RH  059%=      5-min Rain = 0
KMC5 040819Z 02012KT 23/15 A3012 RMK A01 T02310146  RH  059%=      5-min Rain = 0
KMC5 040820Z 02011KT 23/15 A3012 RMK A01 T02320146  RH  059%=      5-min Rain = 0
KMC5 040821Z 02011KT 23/15 A3012 RMK A01 T02320147  RH  059%=      5-min Rain = 0
KMC5 040822Z 01011KT 23/15 A3012 RMK A01 T02320148  RH  059%=      5-min Rain = 0
KMC5 040823Z 01010KT 23/15 A3012 RMK A01 T02310148  RH  059%=      5-min Rain = 0
KMC5 040824Z 01011KT 23/15 A3012 RMK A01 T02310148  RH  059%=      5-min Rain = 0
KMC5 040825Z 02010KT 23/15 A3012 RMK A01 T02310149  RH  060%=      5-min Rain = 0
KMC5 040826Z 01009KT 23/15 A3012 RMK A01 T02310149  RH  060%=      5-min Rain = 0
KMC5 040827Z 02009KT 23/15 A3012 RMK A01 T02300149  RH  060%=      5-min Rain = 0
KMC5 040828Z 02009KT 23/15 A3012 RMK A01 T02300148  RH  060%=      5-min Rain = 0
KMC5 040829Z 02010KT 23/15 A3011 RMK A01 T02300148  RH  060%=      5-min Rain = 0
KMC5 040830Z 03008KT 23/15 A3011 RMK A01 T02300147  RH  060%=      5-min Rain = 0
KMC5 040831Z 03008KT 23/15 A3011 RMK A01 T02300148  RH  060%=      5-min Rain = 0
KMC5 040832Z 03008KT 23/15 A3011 RMK A01 T02300148  RH  060%=      5-min Rain = 0
KMC5 040833Z 03008KT 23/15 A3011 RMK A01 T02300147  RH  060%=      5-min Rain = 0
KMC5 040834Z 03008KT 23/15 A3011 RMK A01 T02300147  RH  060%=      5-min Rain = 0
KMC5 040835Z 03008KT 23/15 A3011 RMK A01 T02300148  RH  060%=      5-min Rain = 0
KMC5 040836Z 03008KT 23/15 A3011 RMK A01 T02300149  RH  060%=      5-min Rain = 0
KMC5 040837Z 03008KT 23/15 A3011 RMK A01 T02290148  RH  060%=      5-min Rain = 0
KMC5 040838Z 03008KT 23/15 A3011 RMK A01 T02290149  RH  060%=      5-min Rain = 0
KMC5 040839Z 03008KT 23/15 A3011 RMK A01 T02290149  RH  061%=      5-min Rain = 0
KMC5 040840Z 03008KT 23/15 A3011 RMK A01 T02280149  RH  061%=      5-min Rain = 0
KMC5 040841Z 02009KT 23/15 A3012 RMK A01 T02280149  RH  061%=      5-min Rain = 0
KMC5 040842Z 02010KT 23/15 A3012 RMK A01 T02270149  RH  061%=      5-min Rain = 0
KMC5 040843Z 02009KT 23/15 A3012 RMK A01 T02270149  RH  061%=      5-min Rain = 0
KMC5 040844Z 02009KT 23/15 A3012 RMK A01 T02270148  RH  061%=      5-min Rain = 0
KMC5 040845Z 03008KT 23/15 A3011 RMK A01 T02270148  RH  061%=      5-min Rain = 0
KMC5 040846Z 03008KT 23/15 A3011 RMK A01 T02270148  RH  061%=      5-min Rain = 0
KMC5 040847Z 03008KT 23/15 A3011 RMK A01 T02270149  RH  061%=      5-min Rain = 0
KMC5 040848Z 03008KT 23/15 A3011 RMK A01 T02270149  RH  061%=      5-min Rain = 0
KMC5 040849Z 03008KT 23/15 A3011 RMK A01 T02270148  RH  061%=      5-min Rain = 0
KMC5 040850Z 03008KT 23/15 A3011 RMK A01 T02260148  RH  061%=      5-min Rain = 0
KMC5 040851Z 04008KT 23/15 A3011 RMK A01 T02260148  RH  061%=      5-min Rain = 0
KMC5 040852Z 04008KT 23/15 A3011 RMK A01 T02260149  RH  061%=      5-min Rain = 0
KMC5 040853Z 04008KT 23/15 A3011 RMK A01 T02260148  RH  061%=      5-min Rain = 0
KMC5 040854Z 04008KT 23/15 A3011 RMK A01 T02260149  RH  062%=      5-min Rain = 0
KMC5 040855Z 04008KT 23/15 A3011 RMK A01 T02260149  RH  062%=      5-min Rain = 0
KMC5 040856Z 04008KT 23/15 A3011 RMK A01 T02260149  RH  062%=      5-min Rain = 0
KMC5 040857Z 04008KT 23/15 A3011 RMK A01 T02260149  RH  062%=      5-min Rain = 0
KMC5 040858Z 04008KT 23/15 A3011 RMK A01 T02250149  RH  062%=      5-min Rain = 0
KMC5 040859Z 04007KT 23/15 A3011 RMK A01 T02250149  RH  062%=      5-min Rain = 0
KMC5 040900Z 03007KT 23/15 A3011 RMK A01 T02250148  RH  062%=      5-min Rain = 0
KMC5 040901Z 03007KT 23/15 A3011 RMK A01 T02250148  RH  062%=      5-min Rain = 0
KMC5 040902Z 03007KT 23/15 A3011 RMK A01 T02250147  RH  061%=      5-min Rain = 0
KMC5 040903Z 03007KT 23/15 A3011 RMK A01 T02260147  RH  061%=      5-min Rain = 0
KMC5 040904Z 03007KT 23/15 A3011 RMK A01 T02260147  RH  061%=      5-min Rain = 0
KMC5 040905Z 02008KT 23/15 A3012 RMK A01 T02260147  RH  061%=      5-min Rain = 0
KMC5 040906Z 03008KT 23/15 A3012 RMK A01 T02260146  RH  061%=      5-min Rain = 0
KMC5 040907Z 03007KT 23/15 A3012 RMK A01 T02260146  RH  060%=      5-min Rain = 0
KMC5 040908Z 02007KT 23/15 A3012 RMK A01 T02260146  RH  060%=      5-min Rain = 0
KMC5 040909Z 02007KT 23/15 A3012 RMK A01 T02260146  RH  060%=      5-min Rain = 0
KMC5 040910Z 02008KT 23/15 A3012 RMK A01 T02260146  RH  061%=      5-min Rain = 0
KMC5 040911Z 02008KT 23/15 A3012 RMK A01 T02260146  RH  060%=      5-min Rain = 0
KMC5 040912Z 02007KT 23/15 A3011 RMK A01 T02260146  RH  060%=      5-min Rain = 0
KMC5 040913Z 02007KT 23/15 A3011 RMK A01 T02270146  RH  060%=      5-min Rain = 0
KMC5 040914Z 02007KT 23/14 A3011 RMK A01 T02270144  RH  060%=      5-min Rain = 0
KMC5 040915Z 02007KT 23/14 A3011 RMK A01 T02270144  RH  059%=      5-min Rain = 0
KMC5 040916Z 02007KT 23/15 A3011 RMK A01 T02280145  RH  060%=      5-min Rain = 0
KMC5 040917Z 03007KT 23/15 A3011 RMK A01 T02280145  RH  060%=      5-min Rain = 0
KMC5 040918Z 03008KT 23/15 A3011 RMK A01 T02280146  RH  060%=      5-min Rain = 0
KMC5 040919Z 03008KT 23/15 A3011 RMK A01 T02270146  RH  060%=      5-min Rain = 0
KMC5 040920Z 03007KT 23/15 A3011 RMK A01 T02270145  RH  060%=      5-min Rain = 0
KMC5 040921Z 03007KT 23/15 A3011 RMK A01 T02270145  RH  060%=      5-min Rain = 0
KMC5 040922Z 03006KT 23/15 A3011 RMK A01 T02270145  RH  060%=      5-min Rain = 0
KMC5 040923Z 03006KT 23/15 A3011 RMK A01 T02270145  RH  060%=      5-min Rain = 0
KMC5 040924Z 03005KT 23/15 A3011 RMK A01 T02270145  RH  060%=      5-min Rain = 0
KMC5 040925Z 03005KT 23/15 A3011 RMK A01 T02270145  RH  060%=      5-min Rain = 0
KMC5 040926Z 03005KT 23/15 A3011 RMK A01 T02270146  RH  060%=      5-min Rain = 0
KMC5 040927Z 03005KT 23/15 A3011 RMK A01 T02260145  RH  060%=      5-min Rain = 0
KMC5 040928Z 03004KT 23/15 A3011 RMK A01 T02260145  RH  060%=      5-min Rain = 0
KMC5 040929Z 04004KT 23/15 A3011 RMK A01 T02260146  RH  060%=      5-min Rain = 0
KMC5 040930Z 04003KT 23/15 A3011 RMK A01 T02260148  RH  061%=      5-min Rain = 0
KMC5 040931Z 04003KT 23/15 A3011 RMK A01 T02250148  RH  061%=      5-min Rain = 0
KMC5 040932Z 04003KT 23/15 A3011 RMK A01 T02250146  RH  061%=      5-min Rain = 0
KMC5 040933Z 04003KT 23/15 A3011 RMK A01 T02250145  RH  061%=      5-min Rain = 0
KMC5 040934Z 03003KT 23/15 A3011 RMK A01 T02250145  RH  061%=      5-min Rain = 0
KMC5 040935Z 02003KT 23/14 A3011 RMK A01 T02250144  RH  060%=      5-min Rain = 0
KMC5 040936Z 01002KT 23/14 A3011 RMK A01 T02260144  RH  060%=      5-min Rain = 0
KMC5 040937Z 00002KT 23/15 A301 RMK A01 T02260146  RH  060%=      5-min Rain = 0
KMC5 040938Z 36002KT 23/15 A301 RMK A01 T02260149  RH  061%=      5-min Rain = 0
KMC5 040939Z 36002KT 23/15 A301 RMK A01 T02260148  RH  061%=      5-min Rain = 0
KMC5 040940Z 36002KT 23/15 A301 RMK A01 T02260146  RH  061%=      5-min Rain = 0
KMC5 040941Z 00002KT 23/15 A301 RMK A01 T02250145  RH  060%=      5-min Rain = 0
KMC5 040942Z 00002KT 23/15 A301 RMK A01 T02260146  RH  061%=      5-min Rain = 0
KMC5 040943Z 35003KT 23/15 A301 RMK A01 T02260145  RH  060%=      5-min Rain = 0
KMC5 040944Z 35002KT 23/15 A301 RMK A01 T02260145  RH  060%=      5-min Rain = 0
KMC5 040945Z 36002KT 23/15 A301 RMK A01 T02260145  RH  060%=      5-min Rain = 0
KMC5 040946Z 35002KT 23/15 A301 RMK A01 T02260145  RH  060%=      5-min Rain = 0
KMC5 040947Z 36002KT 23/15 A301 RMK A01 T02260145  RH  060%=      5-min Rain = 0
KMC5 040948Z 00002KT 23/14 A301 RMK A01 T02270144  RH  060%=      5-min Rain = 0
KMC5 040949Z 35002KT 23/14 A301 RMK A01 T02270143  RH  059%=      5-min Rain = 0
KMC5 040950Z 35003KT 23/14 A301 RMK A01 T02280144  RH  059%=      5-min Rain = 0
KMC5 040951Z 36003KT 23/14 A301 RMK A01 T02270143  RH  059%=      5-min Rain = 0
KMC5 040952Z 00004KT 23/14 A3011 RMK A01 T02280143  RH  059%=      5-min Rain = 0
KMC5 040953Z 36004KT 23/14 A3011 RMK A01 T02280144  RH  059%=      5-min Rain = 0
KMC5 040954Z 36004KT 23/15 A3011 RMK A01 T02280145  RH  060%=      5-min Rain = 0
KMC5 040955Z 36004KT 23/14 A3011 RMK A01 T02280144  RH  059%=      5-min Rain = 0
KMC5 040956Z 00004KT 23/14 A3011 RMK A01 T02270143  RH  059%=      5-min Rain = 0
KMC5 040957Z 36004KT 23/14 A3011 RMK A01 T02270144  RH  059%=      5-min Rain = 0
KMC5 040958Z 35004KT 23/14 A3011 RMK A01 T02270144  RH  059%=      5-min Rain = 0
KMC5 040959Z 36004KT 23/14 A3011 RMK A01 T02270144  RH  059%=      5-min Rain = 0
KMC5 041000Z 00004KT 23/14 A3011 RMK A01 T02270144  RH  059%=      5-min Rain = 0
KMC5 041001Z 36004KT 23/14 A3011 RMK A01 T02260144  RH  060%=      5-min Rain = 0
KMC5 041002Z 36004KT 23/14 A3011 RMK A01 T02260144  RH  060%=      5-min Rain = 0
KMC5 041003Z 35004KT 23/14 A3011 RMK A01 T02260144  RH  060%=      5-min Rain = 0
KMC5 041004Z 35004KT 23/14 A3011 RMK A01 T02250144  RH  060%=      5-min Rain = 0
KMC5 041005Z 35005KT 23/14 A301 RMK A01 T02250144  RH  060%=      5-min Rain = 0
KMC5 041006Z 36005KT 23/14 A301 RMK A01 T02250144  RH  060%=      5-min Rain = 0
KMC5 041007Z 00004KT 22/14 A3011 RMK A01 T02240144  RH  060%=      5-min Rain = 0
KMC5 041008Z 00004KT 22/14 A3011 RMK A01 T02240144  RH  060%=      5-min Rain = 0
KMC5 041009Z 00004KT 22/14 A301 RMK A01 T02240143  RH  060%=      5-min Rain = 0
KMC5 041010Z 00004KT 22/14 A301 RMK A01 T02240144  RH  060%=      5-min Rain = 0
KMC5 041011Z 36005KT 22/14 A301 RMK A01 T02240144  RH  060%=      5-min Rain = 0
KMC5 041012Z 00005KT 22/14 A301 RMK A01 T02240144  RH  061%=      5-min Rain = 0
KMC5 041013Z 00005KT 22/15 A301 RMK A01 T02230145  RH  061%=      5-min Rain = 0
KMC5 041014Z 00005KT 22/15 A301 RMK A01 T02220145  RH  062%=      5-min Rain = 0
KMC5 041015Z 00005KT 22/14 A301 RMK A01 T02220144  RH  061%=      5-min Rain = 0
KMC5 041016Z 00005KT 22/15 A301 RMK A01 T02210145  RH  062%=      5-min Rain = 0
KMC5 041017Z 01005KT 22/14 A301 RMK A01 T02210144  RH  062%=      5-min Rain = 0
KMC5 041018Z 35005KT 22/14 A301 RMK A01 T02210144  RH  061%=      5-min Rain = 0
KMC5 041019Z 35004KT 22/14 A301 RMK A01 T02210142  RH  061%=      5-min Rain = 0
KMC5 041020Z 35004KT 22/14 A301 RMK A01 T02220141  RH  060%=      5-min Rain = 0
KMC5 041021Z 35004KT 22/14 A301 RMK A01 T02230140  RH  060%=      5-min Rain = 0
KMC5 041022Z 34004KT 22/14 A301 RMK A01 T02230139  RH  059%=      5-min Rain = 0
KMC5 041023Z 34004KT 22/14 A301 RMK A01 T02240139  RH  058%=      5-min Rain = 0
KMC5 041024Z 34003KT 23/14 A301 RMK A01 T02250139  RH  058%=      5-min Rain = 0
KMC5 041025Z 33003KT 23/14 A301 RMK A01 T02250138  RH  058%=      5-min Rain = 0
KMC5 041026Z 32002KT 23/14 A301 RMK A01 T02250139  RH  058%=      5-min Rain = 0
KMC5 041027Z 30001KT 23/14 A301 RMK A01 T02250142  RH  059%=      5-min Rain = 0
KMC5 041028Z 30001KT 22/14 A3009 RMK A01 T02220144  RH  061%=      5-min Rain = 0
KMC5 041029Z 30002KT 22/14 A3009 RMK A01 T02200144  RH  062%=      5-min Rain = 0
KMC5 041030Z 29002KT 22/15 A3009 RMK A01 T02180146  RH  063%=      5-min Rain = 0
KMC5 041031Z 29002KT 22/15 A3009 RMK A01 T02170147  RH  064%=      5-min Rain = 0
KMC5 041032Z 29002KT 22/15 A3009 RMK A01 T02160148  RH  065%=      5-min Rain = 0
KMC5 041033Z 29002KT 22/15 A3009 RMK A01 T02150148  RH  066%=      5-min Rain = 0
KMC5 041034Z 29002KT 22/15 A3009 RMK A01 T02150148  RH  065%=      5-min Rain = 0
KMC5 041035Z 26002KT 22/15 A3009 RMK A01 T02150146  RH  065%=      5-min Rain = 0
KMC5 041036Z 24002KT 22/15 A3009 RMK A01 T02160145  RH  064%=      5-min Rain = 0
KMC5 041037Z 25002KT 22/15 A3009 RMK A01 T02170146  RH  064%=      5-min Rain = 0
KMC5 041038Z 26002KT 22/15 A3009 RMK A01 T02170145  RH  064%=      5-min Rain = 0
KMC5 041039Z 26001KT 22/14 A3009 RMK A01 T02180144  RH  063%=      5-min Rain = 0
KMC5 041040Z 29001KT 22/15 A3009 RMK A01 T02180145  RH  063%=      5-min Rain = 0
KMC5 041041Z 30001KT 22/15 A3009 RMK A01 T02180146  RH  063%=      5-min Rain = 0
KMC5 041042Z 33001KT 22/15 A3009 RMK A01 T02180145  RH  063%=      5-min Rain = 0
KMC5 041043Z 34002KT 22/14 A3009 RMK A01 T02180143  RH  062%=      5-min Rain = 0
KMC5 041044Z 35003KT 22/14 A3009 RMK A01 T02200139  RH  060%=      5-min Rain = 0
KMC5 041045Z 35003KT 22/14 A3009 RMK A01 T02220144  RH  061%=      5-min Rain = 0
KMC5 041046Z 36004KT 22/14 A3009 RMK A01 T02230143  RH  060%=      5-min Rain = 0
KMC5 041047Z 00005KT 22/14 A3009 RMK A01 T02230144  RH  061%=      5-min Rain = 0
KMC5 041048Z 00005KT 22/15 A3009 RMK A01 T02230147  RH  062%=      5-min Rain = 0
KMC5 041049Z 36006KT 22/15 A3009 RMK A01 T02210148  RH  063%=      5-min Rain = 0
KMC5 041050Z 00006KT 22/15 A3009 RMK A01 T02200147  RH  063%=      5-min Rain = 0
KMC5 041051Z 36006KT 22/15 A3009 RMK A01 T02190147  RH  063%=      5-min Rain = 0
KMC5 041052Z 36006KT 22/15 A3009 RMK A01 T02190147  RH  064%=      5-min Rain = 0
KMC5 041053Z 00006KT 22/15 A3009 RMK A01 T02180147  RH  064%=      5-min Rain = 0
KMC5 041054Z 00005KT 22/15 A3009 RMK A01 T02190146  RH  063%=      5-min Rain = 0
KMC5 041055Z 00005KT 22/15 A3009 RMK A01 T02190145  RH  063%=      5-min Rain = 0
KMC5 041056Z 00005KT 22/15 A3009 RMK A01 T02190146  RH  063%=      5-min Rain = 0
KMC5 041057Z 01004KT 22/15 A3009 RMK A01 T02200146  RH  063%=      5-min Rain = 0
KMC5 041058Z 01004KT 22/15 A3009 RMK A01 T02200145  RH  063%=      5-min Rain = 0
KMC5 041059Z 00004KT 22/15 A3009 RMK A01 T02200145  RH  062%=      5-min Rain = 0
KMC5 041100Z 36004KT 22/15 A3009 RMK A01 T02210145  RH  062%=      5-min Rain = 0
KMC5 041101Z 36005KT 22/15 A3009 RMK A01 T02220145  RH  062%=      5-min Rain = 0
KMC5 041102Z 35005KT 22/15 A3009 RMK A01 T02220145  RH  062%=      5-min Rain = 0
KMC5 041103Z 35006KT 22/15 A301 RMK A01 T02220146  RH  062%=      5-min Rain = 0
KMC5 041104Z 35008KT 22/15 A301 RMK A01 T02220147  RH  062%=      5-min Rain = 0
KMC5 041105Z 35008KT 22/15 A301 RMK A01 T02220145  RH  062%=      5-min Rain = 0
KMC5 041106Z 35007KT 22/15 A301 RMK A01 T02220145  RH  062%=      5-min Rain = 0
KMC5 041107Z 35007KT 22/14 A301 RMK A01 T02230144  RH  061%=      5-min Rain = 0
KMC5 041108Z 34007KT 22/15 A301 RMK A01 T02230145  RH  061%=      5-min Rain = 0
KMC5 041109Z 34008KT 22/15 A301 RMK A01 T02230146  RH  062%=      5-min Rain = 0
KMC5 041110Z 34009KT 22/15 A301 RMK A01 T02230146  RH  062%=      5-min Rain = 0
KMC5 041111Z 34009KT 22/15 A301 RMK A01 T02220145  RH  062%=      5-min Rain = 0
KMC5 041112Z 33009KT 22/15 A301 RMK A01 T02220146  RH  062%=      5-min Rain = 0
KMC5 041113Z 32009KT 22/15 A301 RMK A01 T02220147  RH  063%=      5-min Rain = 0
KMC5 041114Z 32010KT 22/15 A301 RMK A01 T02200148  RH  064%=      5-min Rain = 0
KMC5 041115Z 33011KT 22/15 A301 RMK A01 T02190148  RH  064%=      5-min Rain = 0
KMC5 041116Z 33010KT 22/15 A301 RMK A01 T02180148  RH  064%=      5-min Rain = 0
KMC5 041117Z 33011KT 22/15 A301 RMK A01 T02180149  RH  065%=      5-min Rain = 0
KMC5 041118Z 34010KT 22/15 A301 RMK A01 T02170149  RH  065%=      5-min Rain = 0
KMC5 041119Z 34012KT 22/15 A301 RMK A01 T02180149  RH  065%=      5-min Rain = 0
KMC5 041120Z 34012KT 22/15 A301 RMK A01 T02180148  RH  065%=      5-min Rain = 0
KMC5 041121Z 34012KT 22/15 A301 RMK A01 T02190148  RH  064%=      5-min Rain = 0
KMC5 041122Z 34013KT 22/15 A301 RMK A01 T02200148  RH  064%=      5-min Rain = 0
KMC5 041123Z 34013KT 22/15 A301 RMK A01 T02200148  RH  064%=      5-min Rain = 0
KMC5 041124Z 34012KT 22/15 A301 RMK A01 T02200148  RH  064%=      5-min Rain = 0
KMC5 041125Z 34011KT 22/15 A301 RMK A01 T02200148  RH  063%=      5-min Rain = 0
KMC5 041126Z 34010KT 22/15 A301 RMK A01 T02210148  RH  063%=      5-min Rain = 0
KMC5 041127Z 34010KT 22/15 A301 RMK A01 T02200148  RH  063%=      5-min Rain = 0
KMC5 041128Z 34009KT 22/15 A301 RMK A01 T02210147  RH  063%=      5-min Rain = 0
KMC5 041129Z 34007KT 22/15 A301 RMK A01 T02210148  RH  063%=      5-min Rain = 0
KMC5 041130Z 34007KT 22/15 A301 RMK A01 T02210149  RH  064%=      5-min Rain = 0
KMC5 041131Z 34007KT 22/15 A301 RMK A01 T02200150  RH  064%=      5-min Rain = 0
KMC5 041132Z 35008KT 22/15 A301 RMK A01 T02190150  RH  065%=      5-min Rain = 0
KMC5 041133Z 36008KT 22/15 A301 RMK A01 T02180149  RH  065%=      5-min Rain = 0
KMC5 041134Z 36008KT 22/15 A301 RMK A01 T02190146  RH  063%=      5-min Rain = 0
KMC5 041135Z 35008KT 22/15 A301 RMK A01 T02210147  RH  063%=      5-min Rain = 0
KMC5 041136Z 35009KT 22/15 A301 RMK A01 T02210147  RH  063%=      5-min Rain = 0
KMC5 041137Z 35009KT 22/15 A301 RMK A01 T02210147  RH  063%=      5-min Rain = 0
KMC5 041138Z 35009KT 22/15 A301 RMK A01 T02220147  RH  063%=      5-min Rain = 0
KMC5 041139Z 35009KT 22/15 A301 RMK A01 T02220147  RH  062%=      5-min Rain = 0
KMC5 041140Z 35008KT 22/15 A301 RMK A01 T02230147  RH  062%=      5-min Rain = 0
KMC5 041141Z 36009KT 22/15 A301 RMK A01 T02230148  RH  063%=      5-min Rain = 0
KMC5 041142Z 36009KT 22/15 A301 RMK A01 T02220149  RH  063%=      5-min Rain = 0
KMC5 041143Z 35009KT 22/15 A301 RMK A01 T02200149  RH  064%=      5-min Rain = 0
KMC5 041144Z 35009KT 22/15 A301 RMK A01 T02190150  RH  065%=      5-min Rain = 0
KMC5 041145Z 35009KT 22/15 A301 RMK A01 T02170150  RH  066%=      5-min Rain = 0
KMC5 041146Z 35009KT 22/15 A301 RMK A01 T02160150  RH  066%=      5-min Rain = 0
KMC5 041147Z 36009KT 22/15 A301 RMK A01 T02150150  RH  066%=      5-min Rain = 0
KMC5 041148Z 36009KT 22/15 A301 RMK A01 T02150150  RH  066%=      5-min Rain = 0
KMC5 041149Z 36009KT 22/15 A301 RMK A01 T02150150  RH  067%=      5-min Rain = 0
KMC5 041150Z 36008KT 22/15 A301 RMK A01 T02150151  RH  067%=      5-min Rain = 0
KMC5 041151Z 00008KT 21/15 A301 RMK A01 T02140150  RH  067%=      5-min Rain = 0
KMC5 041152Z 36008KT 21/15 A301 RMK A01 T02140151  RH  067%=      5-min Rain = 0
KMC5 041153Z 36008KT 21/15 A301 RMK A01 T02130151  RH  068%=      5-min Rain = 0
KMC5 041154Z 35009KT 21/15 A301 RMK A01 T02130151  RH  068%=      5-min Rain = 0
KMC5 041155Z 35008KT 21/15 A301 RMK A01 T02120150  RH  068%=      5-min Rain = 0
KMC5 041156Z 35008KT 21/15 A301 RMK A01 T02130150  RH  067%=      5-min Rain = 0
KMC5 041157Z 34008KT 21/15 A301 RMK A01 T02130150  RH  067%=      5-min Rain = 0
KMC5 041158Z 34006KT 21/15 A301 RMK A01 T02140150  RH  067%=      5-min Rain = 0
KMC5 041159Z 34006KT 21/15 A301 RMK A01 T02140151  RH  067%=      5-min Rain = 0
KMC5 041200Z 34007KT 21/15 A301 RMK A01 T02140150  RH  067%=      5-min Rain = 0
KMC5 041201Z 34007KT 21/15 A301 RMK A01 T02140150  RH  067%=      5-min Rain = 0
KMC5 041202Z 34007KT 21/15 A301 RMK A01 T02140149  RH  066%=      5-min Rain = 0
KMC5 041203Z 33006KT 22/15 A301 RMK A01 T02150149  RH  066%=      5-min Rain = 0
KMC5 041204Z 33006KT 22/15 A301 RMK A01 T02160150  RH  066%=      5-min Rain = 0
KMC5 041205Z 33006KT 22/15 A301 RMK A01 T02160150  RH  066%=      5-min Rain = 0
KMC5 041206Z 34006KT 22/15 A301 RMK A01 T02170150  RH  066%=      5-min Rain = 0
KMC5 041207Z 33006KT 22/15 A301 RMK A01 T02180150  RH  065%=      5-min Rain = 0
KMC5 041208Z 33006KT 22/15 A301 RMK A01 T02180151  RH  065%=      5-min Rain = 0
KMC5 041209Z 33005KT 22/15 A301 RMK A01 T02190151  RH  065%=      5-min Rain = 0
KMC5 041210Z 33006KT 22/15 A301 RMK A01 T02190150  RH  065%=      5-min Rain = 0
KMC5 041211Z 32005KT 22/15 A301 RMK A01 T02200151  RH  065%=      5-min Rain = 0
KMC5 041212Z 31006KT 22/15 A3011 RMK A01 T02200152  RH  065%=      5-min Rain = 0
KMC5 041213Z 29006KT 22/15 A3011 RMK A01 T02200154  RH  066%=      5-min Rain = 0
KMC5 041214Z 29007KT 22/16 A3011 RMK A01 T02190155  RH  067%=      5-min Rain = 0
KMC5 041215Z 29008KT 22/16 A3011 RMK A01 T02180156  RH  068%=      5-min Rain = 0
KMC5 041216Z 30009KT 22/15 A3011 RMK A01 T02170152  RH  066%=      5-min Rain = 0
KMC5 041217Z 29009KT 22/15 A3011 RMK A01 T02180150  RH  065%=      5-min Rain = 0
KMC5 041218Z 29007KT 22/15 A3011 RMK A01 T02190150  RH  065%=      5-min Rain = 0
KMC5 041219Z 28005KT 22/15 A301 RMK A01 T02190151  RH  065%=      5-min Rain = 0
KMC5 041220Z 30006KT 22/15 A301 RMK A01 T02200151  RH  065%=      5-min Rain = 0
KMC5 041221Z 30005KT 22/15 A301 RMK A01 T02200149  RH  064%=      5-min Rain = 0
KMC5 041222Z 31005KT 22/15 A301 RMK A01 T02200150  RH  064%=      5-min Rain = 0
KMC5 041223Z 32006KT 22/15 A301 RMK A01 T02210151  RH  065%=      5-min Rain = 0
KMC5 041224Z 32006KT 22/15 A301 RMK A01 T02210153  RH  065%=      5-min Rain = 0
KMC5 041225Z 32007KT 22/15 A301 RMK A01 T02210151  RH  065%=      5-min Rain = 0
KMC5 041226Z 32004KT 22/15 A301 RMK A01 T02210151  RH  065%=      5-min Rain = 0
KMC5 041227Z 32005KT 22/15 A301 RMK A01 T02210153  RH  066%=      5-min Rain = 0
KMC5 041228Z 32005KT 22/15 A301 RMK A01 T02200150  RH  064%=      5-min Rain = 0
KMC5 041229Z 32006KT 22/15 A301 RMK A01 T02210150  RH  064%=      5-min Rain = 0
KMC5 041230Z 33007KT 22/15 A301 RMK A01 T02220149  RH  063%=      5-min Rain = 0
KMC5 041231Z 33007KT 22/15 A3011 RMK A01 T02240149  RH  062%=      5-min Rain = 0
KMC5 041232Z 33007KT 23/15 A3011 RMK A01 T02250149  RH  062%=      5-min Rain = 0
KMC5 041233Z 33008KT 23/15 A3011 RMK A01 T02250150  RH  062%=      5-min Rain = 0
KMC5 041234Z 33009KT 23/15 A3011 RMK A01 T02250149  RH  062%=      5-min Rain = 0
KMC5 041235Z 33009KT 23/15 A3011 RMK A01 T02260149  RH  062%=      5-min Rain = 0
KMC5 041236Z 33008KT 23/15 A3011 RMK A01 T02260148  RH  061%=      5-min Rain = 0
KMC5 041237Z 32007KT 23/15 A3011 RMK A01 T02260148  RH  061%=      5-min Rain = 0
KMC5 041238Z 32007KT 23/15 A3011 RMK A01 T02270149  RH  061%=      5-min Rain = 0
KMC5 041239Z 33008KT 23/15 A3011 RMK A01 T02260149  RH  062%=      5-min Rain = 0
KMC5 041240Z 33009KT 23/15 A3011 RMK A01 T02270150  RH  062%=      5-min Rain = 0
KMC5 041241Z 33010KT 23/15 A3011 RMK A01 T02270149  RH  061%=      5-min Rain = 0
KMC5 041242Z 33010KT 23/15 A3011 RMK A01 T02280148  RH  061%=      5-min Rain = 0
KMC5 041243Z 34009KT 23/15 A3011 RMK A01 T02280148  RH  061%=      5-min Rain = 0
KMC5 041244Z 33008KT 23/15 A3011 RMK A01 T02280148  RH  061%=      5-min Rain = 0
KMC5 041245Z 33010KT 23/15 A3011 RMK A01 T02280147  RH  060%=      5-min Rain = 0
KMC5 041246Z 33008KT 23/15 A3011 RMK A01 T02280148  RH  061%=      5-min Rain = 0
KMC5 041247Z 33009KT 23/15 A3011 RMK A01 T02270148  RH  061%=      5-min Rain = 0
KMC5 041248Z 33009KT 23/15 A3011 RMK A01 T02270147  RH  061%=      5-min Rain = 0
KMC5 041249Z 33007KT 23/15 A3011 RMK A01 T02260150  RH  062%=      5-min Rain = 0
KMC5 041250Z 32009KT 23/15 A3011 RMK A01 T02260149  RH  062%=      5-min Rain = 0
KMC5 041251Z 33006KT 23/15 A3011 RMK A01 T02260149  RH  062%=      5-min Rain = 0
KMC5 041252Z 33007KT 23/15 A3011 RMK A01 T02260149  RH  062%=      5-min Rain = 0
KMC5 041253Z 33008KT 23/15 A3011 RMK A01 T02270149  RH  061%=      5-min Rain = 0
KMC5 041254Z 33008KT 23/15 A3011 RMK A01 T02270149  RH  061%=      5-min Rain = 0
KMC5 041255Z 34008KT 23/15 A3011 RMK A01 T02270150  RH  062%=      5-min Rain = 0
KMC5 041256Z 34009KT 23/15 A3011 RMK A01 T02280148  RH  061%=      5-min Rain = 0
KMC5 041257Z 34009KT 23/15 A3011 RMK A01 T02280148  RH  061%=      5-min Rain = 0
KMC5 041258Z 34007KT 23/15 A301 RMK A01 T02270149  RH  061%=      5-min Rain = 0
KMC5 041259Z 34006KT 23/15 A301 RMK A01 T02270148  RH  061%=      5-min Rain = 0
KMC5 041300Z 33007KT 23/15 A301 RMK A01 T02270149  RH  061%=      5-min Rain = 0
KMC5 041301Z 34008KT 23/15 A301 RMK A01 T02270148  RH  061%=      5-min Rain = 0
KMC5 041302Z 34008KT 23/15 A301 RMK A01 T02270150  RH  062%=      5-min Rain = 0
KMC5 041303Z 35009KT 23/15 A301 RMK A01 T02270148  RH  061%=      5-min Rain = 0
KMC5 041304Z 35008KT 23/15 A301 RMK A01 T02270149  RH  061%=      5-min Rain = 0
KMC5 041305Z 35007KT 23/15 A301 RMK A01 T02270149  RH  061%=      5-min Rain = 0
KMC5 041306Z 35007KT 23/15 A301 RMK A01 T02270149  RH  061%=      5-min Rain = 0
KMC5 041307Z 35008KT 23/15 A301 RMK A01 T02280149  RH  061%=      5-min Rain = 0
KMC5 041308Z 35007KT 23/15 A301 RMK A01 T02280149  RH  061%=      5-min Rain = 0
KMC5 041309Z 35007KT 23/15 A301 RMK A01 T02280149  RH  061%=      5-min Rain = 0
KMC5 041310Z 35006KT 23/15 A301 RMK A01 T02290149  RH  061%=      5-min Rain = 0
KMC5 041311Z 35007KT 23/15 A301 RMK A01 T02290151  RH  061%=      5-min Rain = 0
KMC5 041312Z 36007KT 23/15 A301 RMK A01 T02290149  RH  061%=      5-min Rain = 0
KMC5 041313Z 35008KT 23/15 A301 RMK A01 T02290147  RH  060%=      5-min Rain = 0
KMC5 041314Z 36008KT 23/15 A301 RMK A01 T02290148  RH  060%=      5-min Rain = 0
KMC5 041315Z 35008KT 23/15 A301 RMK A01 T02290148  RH  060%=      5-min Rain = 0
KMC5 041316Z 35009KT 23/15 A301 RMK A01 T02290147  RH  060%=      5-min Rain = 0
KMC5 041317Z 35008KT 23/15 A301 RMK A01 T02290148  RH  060%=      5-min Rain = 0
KMC5 041318Z 35009KT 23/15 A301 RMK A01 T02300149  RH  060%=      5-min Rain = 0
KMC5 041319Z 00007KT 23/15 A301 RMK A01 T02300150  RH  061%=      5-min Rain = 0
KMC5 041320Z 36009KT 23/15 A301 RMK A01 T02300150  RH  061%=      5-min Rain = 0
KMC5 041321Z 36010KT 23/15 A301 RMK A01 T02310148  RH  060%=      5-min Rain = 0
KMC5 041322Z 36009KT 23/15 A301 RMK A01 T02300148  RH  060%=      5-min Rain = 0
KMC5 041323Z 36009KT 23/15 A301 RMK A01 T02300148  RH  060%=      5-min Rain = 0
KMC5 041324Z 35010KT 23/15 A301 RMK A01 T02300148  RH  060%=      5-min Rain = 0
KMC5 041325Z 35008KT 23/15 A301 RMK A01 T02310149  RH  060%=      5-min Rain = 0
KMC5 041326Z 35008KT 23/15 A301 RMK A01 T02320149  RH  060%=      5-min Rain = 0
KMC5 041327Z 35007KT 23/15 A301 RMK A01 T02320149  RH  060%=      5-min Rain = 0
KMC5 041328Z 36006KT 23/15 A301 RMK A01 T02320150  RH  060%=      5-min Rain = 0
KMC5 041329Z 36006KT 23/15 A301 RMK A01 T02320150  RH  060%=      5-min Rain = 0
KMC5 041330Z 35007KT 23/15 A301 RMK A01 T02320151  RH  060%=      5-min Rain = 0
KMC5 041331Z 00008KT 23/15 A301 RMK A01 T02320149  RH  060%=      5-min Rain = 0
KMC5 041332Z 36006KT 23/15 A301 RMK A01 T02320150  RH  060%=      5-min Rain = 0
KMC5 041333Z 01007KT 23/15 A301 RMK A01 T02330152  RH  060%=      5-min Rain = 0
KMC5 041334Z 00009KT 23/15 A301 RMK A01 T02330149  RH  059%=      5-min Rain = 0
KMC5 041335Z 00008KT 23/15 A301 RMK A01 T02330149  RH  059%=      5-min Rain = 0
KMC5 041336Z 00009KT 23/15 A301 RMK A01 T02330149  RH  059%=      5-min Rain = 0
KMC5 041337Z 00009KT 23/15 A301 RMK A01 T02330149  RH  059%=      5-min Rain = 0
KMC5 041338Z 36008KT 23/15 A301 RMK A01 T02330149  RH  059%=      5-min Rain = 0
KMC5 041339Z 36007KT 23/15 A301 RMK A01 T02330149  RH  059%=      5-min Rain = 0
KMC5 041340Z 35006KT 23/15 A301 RMK A01 T02330151  RH  060%=      5-min Rain = 0
KMC5 041341Z 36006KT 23/15 A301 RMK A01 T02340153  RH  060%=      5-min Rain = 0
KMC5 041342Z 01006KT 24/16 A3009 RMK A01 T02360155  RH  060%=      5-min Rain = 0
KMC5 041343Z 00005KT 24/15 A3009 RMK A01 T02380154  RH  060%=      5-min Rain = 0
KMC5 041344Z 01007KT 24/15 A3009 RMK A01 T02380152  RH  059%=      5-min Rain = 0
KMC5 041345Z 01007KT 24/15 A3009 RMK A01 T02380154  RH  059%=      5-min Rain = 0
KMC5 041346Z 01007KT 24/15 A3009 RMK A01 T02380153  RH  059%=      5-min Rain = 0
KMC5 041347Z 01007KT 24/15 A3009 RMK A01 T02390152  RH  058%=      5-min Rain = 0
KMC5 041348Z 01008KT 24/15 A3009 RMK A01 T02390152  RH  058%=      5-min Rain = 0
KMC5 041349Z 01007KT 24/15 A3009 RMK A01 T02390151  RH  058%=      5-min Rain = 0
KMC5 041350Z 02007KT 24/15 A3009 RMK A01 T02390152  RH  058%=      5-min Rain = 0
KMC5 041351Z 03006KT 24/15 A3009 RMK A01 T02410153  RH  058%=      5-min Rain = 0
KMC5 041352Z 03007KT 24/15 A3009 RMK A01 T02440154  RH  057%=      5-min Rain = 0
KMC5 041353Z 02007KT 25/15 A3009 RMK A01 T02450153  RH  056%=      5-min Rain = 0
KMC5 041354Z 02009KT 25/15 A3009 RMK A01 T02450154  RH  057%=      5-min Rain = 0
KMC5 041355Z 01009KT 25/15 A3009 RMK A01 T02450151  RH  056%=      5-min Rain = 0
KMC5 041356Z 01009KT 24/15 A3009 RMK A01 T02430150  RH  056%=      5-min Rain = 0
KMC5 041357Z 01006KT 24/15 A3009 RMK A01 T02420151  RH  056%=      5-min Rain = 0
KMC5 041358Z 01008KT 24/15 A3009 RMK A01 T02420153  RH  057%=      5-min Rain = 0
KMC5 041359Z 01009KT 24/15 A3009 RMK A01 T02430151  RH  056%=      5-min Rain = 0
KMC5 041400Z 02008KT 24/15 A3009 RMK A01 T02430152  RH  057%=      5-min Rain = 0
KMC5 041401Z 02008KT 24/15 A3009 RMK A01 T02430152  RH  057%=      5-min Rain = 0
KMC5 041402Z 03006KT 24/15 A3009 RMK A01 T02440151  RH  056%=      5-min Rain = 0
KMC5 041403Z 03009KT 24/15 A3009 RMK A01 T02440154  RH  057%=      5-min Rain = 0
KMC5 041404Z 02007KT 25/16 A3009 RMK A01 T02450155  RH  057%=      5-min Rain = 0
KMC5 041405Z 02009KT 25/15 A3009 RMK A01 T02450154  RH  057%=      5-min Rain = 0
KMC5 041406Z 01007KT 25/15 A3009 RMK A01 T02460154  RH  057%=      5-min Rain = 0
KMC5 041407Z 01008KT 25/16 A3009 RMK A01 T02470156  RH  057%=      5-min Rain = 0
KMC5 041408Z 01010KT 25/16 A3009 RMK A01 T02480155  RH  056%=      5-min Rain = 0
KMC5 041409Z 02009KT 25/16 A3009 RMK A01 T02480156  RH  057%=      5-min Rain = 0
KMC5 041410Z 01008KT 25/16 A3009 RMK A01 T02490156  RH  056%=      5-min Rain = 0
KMC5 041411Z 02007KT 25/16 A3009 RMK A01 T02490157  RH  057%=      5-min Rain = 0
KMC5 041412Z 01009KT 25/16 A3009 RMK A01 T02500160  RH  058%=      5-min Rain = 0
KMC5 041413Z 01010KT 25/16 A3009 RMK A01 T02500158  RH  056%=      5-min Rain = 0
KMC5 041414Z 36009KT 25/16 A3009 RMK A01 T02500156  RH  056%=      5-min Rain = 0
KMC5 041415Z 01008KT 25/16 A3009 RMK A01 T02490157  RH  057%=      5-min Rain = 0
KMC5 041416Z 01009KT 25/16 A3009 RMK A01 T02490160  RH  058%=      5-min Rain = 0
KMC5 041417Z 02009KT 25/16 A3009 RMK A01 T02500160  RH  057%=      5-min Rain = 0
KMC5 041418Z 03010KT 25/16 A3009 RMK A01 T02500161  RH  057%=      5-min Rain = 0
KMC5 041419Z 02010KT 25/16 A3009 RMK A01 T02500160  RH  057%=      5-min Rain = 0
KMC5 041420Z 03010KT 25/16 A3009 RMK A01 T02490159  RH  057%=      5-min Rain = 0
KMC5 041421Z 03010KT 25/16 A3009 RMK A01 T02480157  RH  057%=      5-min Rain = 0
KMC5 041422Z 02009KT 25/16 A3009 RMK A01 T02470158  RH  058%=      5-min Rain = 0
KMC5 041423Z 03009KT 25/16 A3009 RMK A01 T02470160  RH  058%=      5-min Rain = 0
KMC5 041424Z 03011KT 25/16 A3009 RMK A01 T02470158  RH  058%=      5-min Rain = 0
KMC5 041425Z 03010KT 25/16 A3009 RMK A01 T02470158  RH  058%=      5-min Rain = 0
KMC5 041426Z 03010KT 25/16 A3009 RMK A01 T02470159  RH  058%=      5-min Rain = 0
KMC5 041427Z 03010KT 25/16 A3009 RMK A01 T02480160  RH  058%=      5-min Rain = 0
KMC5 041428Z 02008KT 25/16 A3009 RMK A01 T02480158  RH  057%=      5-min Rain = 0
KMC5 041429Z 02010KT 25/16 A3009 RMK A01 T02480161  RH  058%=      5-min Rain = 0
KMC5 041430Z 03013KT 25/16 A3009 RMK A01 T02480160  RH  058%=      5-min Rain = 0
KMC5 041431Z 03010KT 25/16 A3009 RMK A01 T02490159  RH  057%=      5-min Rain = 0
KMC5 041432Z 02011KT 25/16 A3009 RMK A01 T02490159  RH  057%=      5-min Rain = 0
KMC5 041433Z 03009KT 25/16 A3009 RMK A01 T02490160  RH  058%=      5-min Rain = 0
KMC5 041434Z 04009KT 25/16 A3009 RMK A01 T02490159  RH  057%=      5-min Rain = 0
KMC5 041435Z 04009KT 25/16 A3009 RMK A01 T02490158  RH  057%=      5-min Rain = 0
KMC5 041436Z 03009KT 25/16 A3009 RMK A01 T02490159  RH  057%=      5-min Rain = 0
KMC5 041437Z 03009KT 25/16 A3009 RMK A01 T02500160  RH  058%=      5-min Rain = 0
KMC5 041438Z 03009KT 25/16 A3009 RMK A01 T02510158  RH  056%=      5-min Rain = 0
KMC5 041439Z 03007KT 25/16 A3009 RMK A01 T02500160  RH  057%=      5-min Rain = 0
KMC5 041440Z 03007KT 25/16 A3009 RMK A01 T02510161  RH  057%=      5-min Rain = 0
KMC5 041441Z 03007KT 25/16 A3009 RMK A01 T02530163  RH  057%=      5-min Rain = 0
KMC5 041442Z 04007KT 26/16 A3009 RMK A01 T02550164  RH  057%=      5-min Rain = 0
KMC5 041443Z 04009KT 26/17 A3009 RMK A01 T02580165  RH  056%=      5-min Rain = 0
KMC5 041444Z 04007KT 26/17 A3009 RMK A01 T02610166  RH  056%=      5-min Rain = 0
KMC5 041445Z 04007KT 26/17 A3009 RMK A01 T02630165  RH  055%=      5-min Rain = 0
KMC5 041446Z 04006KT 27/17 A3009 RMK A01 T02650165  RH  054%=      5-min Rain = 0
KMC5 041447Z 05008KT 27/17 A3009 RMK A01 T02650165  RH  054%=      5-min Rain = 0
KMC5 041448Z 05010KT 27/17 A3009 RMK A01 T02650166  RH  055%=      5-min Rain = 0
KMC5 041449Z 04008KT 27/17 A3009 RMK A01 T02660165  RH  054%=      5-min Rain = 0
KMC5 041450Z 04010KT 27/17 A3009 RMK A01 T02670167  RH  054%=      5-min Rain = 0
KMC5 041451Z 04011KT 27/17 A3009 RMK A01 T02690165  RH  053%=      5-min Rain = 0
KMC5 041452Z 04011KT 27/17 A3009 RMK A01 T02700169  RH  054%=      5-min Rain = 0
KMC5 041453Z 05011KT 27/17 A3009 RMK A01 T02720168  RH  053%=      5-min Rain = 0
KMC5 041454Z 05009KT 27/17 A3009 RMK A01 T02730167  RH  052%=      5-min Rain = 0
KMC5 041455Z 06008KT 27/17 A3009 RMK A01 T02720169  RH  053%=      5-min Rain = 0
KMC5 041456Z 06009KT 27/17 A3009 RMK A01 T02720171  RH  054%=      5-min Rain = 0
KMC5 041457Z 02010KT 28/17 A3009 RMK A01 T02770174  RH  054%=      5-min Rain = 0
KMC5 041458Z 03012KT 28/17 A3009 RMK A01 T02800170  RH  051%=      5-min Rain = 0
KMC5 041459Z 03010KT 28/17 A3009 RMK A01 T02800171  RH  051%=      5-min Rain = 0
KMC5 041500Z 03008KT 28/17 A3009 RMK A01 T02790173  RH  052%=      5-min Rain = 0
KMC5 041501Z 03010KT 28/17 A3009 RMK A01 T02790172  RH  052%=      5-min Rain = 0
KMC5 041502Z 01010KT 28/17 A3009 RMK A01 T02790172  RH  052%=      5-min Rain = 0
KMC5 041503Z 02008KT 28/17 A3009 RMK A01 T02770173  RH  053%=      5-min Rain = 0
KMC5 041504Z 03009KT 28/17 A3009 RMK A01 T02770174  RH  053%=      5-min Rain = 0
KMC5 041505Z 03011KT 28/18 A3009 RMK A01 T02790175  RH  053%=      5-min Rain = 0
KMC5 041506Z 03013KT 28/17 A3009 RMK A01 T02820171  RH  051%=      5-min Rain = 0
KMC5 041507Z 04011KT 28/17 A3009 RMK A01 T02800171  RH  051%=      5-min Rain = 0
KMC5 041508Z 03011KT 28/17 A3009 RMK A01 T02780172  RH  052%=      5-min Rain = 0
KMC5 041509Z 04010KT 28/17 A3009 RMK A01 T02780174  RH  053%=      5-min Rain = 0
KMC5 041510Z 04010KT 28/17 A3009 RMK A01 T02790174  RH  053%=      5-min Rain = 0
KMC5 041511Z 04012KT 28/17 A3009 RMK A01 T02800173  RH  052%=      5-min Rain = 0
KMC5 041512Z 03012KT 28/17 A3009 RMK A01 T02810173  RH  052%=      5-min Rain = 0
KMC5 041513Z 02011KT 28/18 A3009 RMK A01 T02800175  RH  053%=      5-min Rain = 0
KMC5 041514Z 04009KT 28/18 A3009 RMK A01 T02810175  RH  052%=      5-min Rain = 0
KMC5 041515Z 05011KT 28/18 A3009 RMK A01 T02810177  RH  053%=      5-min Rain = 0
KMC5 041516Z 05011KT 28/17 A3009 RMK A01 T02810173  RH  052%=      5-min Rain = 0
KMC5 041517Z 04012KT 28/17 A3009 RMK A01 T02780172  RH  052%=      5-min Rain = 0
KMC5 041518Z 04011KT 28/17 A3009 RMK A01 T02780174  RH  053%=      5-min Rain = 0
KMC5 041519Z 04009KT 28/18 A3009 RMK A01 T02770175  RH  054%=      5-min Rain = 0
KMC5 041520Z 05010KT 28/17 A3009 RMK A01 T02770174  RH  053%=      5-min Rain = 0
KMC5 041521Z 03011KT 28/18 A3009 RMK A01 T02770177  RH  054%=      5-min Rain = 0
KMC5 041522Z 04011KT 28/18 A3009 RMK A01 T02800176  RH  053%=      5-min Rain = 0
KMC5 041523Z 06011KT 28/17 A3009 RMK A01 T02810174  RH  052%=      5-min Rain = 0
KMC5 041524Z 06008KT 28/18 A3009 RMK A01 T02780176  RH  054%=      5-min Rain = 0
KMC5 041525Z 06009KT 28/18 A3009 RMK A01 T02790177  RH  054%=      5-min Rain = 0
KMC5 041526Z 06012KT 28/18 A3009 RMK A01 T02840180  RH  053%=      5-min Rain = 0
KMC5 041527Z 04012KT 29/18 A3009 RMK A01 T02860177  RH  052%=      5-min Rain = 0
KMC5 041528Z 04010KT 29/18 A3009 RMK A01 T02850177  RH  052%=      5-min Rain = 0
KMC5 041529Z 04010KT 28/18 A3009 RMK A01 T02840178  RH  052%=      5-min Rain = 0
KMC5 041530Z 05010KT 28/18 A3009 RMK A01 T02840177  RH  052%=      5-min Rain = 0
KMC5 041531Z 04011KT 28/18 A3009 RMK A01 T02810179  RH  054%=      5-min Rain = 0
KMC5 041532Z 05009KT 28/18 A3009 RMK A01 T02820179  RH  054%=      5-min Rain = 0
KMC5 041533Z 04009KT 28/18 A3009 RMK A01 T02820178  RH  053%=      5-min Rain = 0
KMC5 041534Z 04009KT 28/18 A3009 RMK A01 T02820177  RH  053%=      5-min Rain = 0
KMC5 041535Z 06009KT 28/18 A3009 RMK A01 T02830179  RH  053%=      5-min Rain = 0
KMC5 041536Z 06009KT 28/18 A301 RMK A01 T02830178  RH  053%=      5-min Rain = 0
KMC5 041537Z 05010KT 28/18 A301 RMK A01 T02800175  RH  053%=      5-min Rain = 0
KMC5 041538Z 05009KT 28/17 A301 RMK A01 T02780174  RH  053%=      5-min Rain = 0
KMC5 041539Z 05008KT 28/18 A301 RMK A01 T02760177  RH  055%=      5-min Rain = 0
KMC5 041540Z 06007KT 28/18 A301 RMK A01 T02750178  RH  055%=      5-min Rain = 0
KMC5 041541Z 06009KT 28/18 A301 RMK A01 T02750178  RH  056%=      5-min Rain = 0
KMC5 041542Z 06009KT 28/18 A301 RMK A01 T02750178  RH  055%=      5-min Rain = 0
KMC5 041543Z 05007KT 28/18 A301 RMK A01 T02750179  RH  056%=      5-min Rain = 0
KMC5 041544Z 06008KT 28/18 A301 RMK A01 T02750178  RH  055%=      5-min Rain = 0
KMC5 041545Z 05009KT 28/18 A301 RMK A01 T02770177  RH  054%=      5-min Rain = 0
KMC5 041546Z 06007KT 28/18 A301 RMK A01 T02780176  RH  054%=      5-min Rain = 0
KMC5 041547Z 06007KT 28/18 A301 RMK A01 T02780179  RH  055%=      5-min Rain = 0
KMC5 041548Z 07008KT 28/18 A301 RMK A01 T02810175  RH  053%=      5-min Rain = 0
KMC5 041549Z 05010KT 28/18 A301 RMK A01 T02810180  RH  054%=      5-min Rain = 0
KMC5 041550Z 05009KT 28/18 A301 RMK A01 T02840180  RH  053%=      5-min Rain = 0
KMC5 041551Z 06008KT 29/18 A301 RMK A01 T02850181  RH  053%=      5-min Rain = 0
KMC5 041552Z 06007KT 28/18 A301 RMK A01 T02830182  RH  054%=      5-min Rain = 0
KMC5 041553Z 06010KT 29/18 A301 RMK A01 T02850183  RH  054%=      5-min Rain = 0
KMC5 041554Z 05009KT 29/18 A301 RMK A01 T02870184  RH  054%=      5-min Rain = 0
KMC5 041555Z 04008KT 29/18 A301 RMK A01 T02880184  RH  053%=      5-min Rain = 0
KMC5 041556Z 03010KT 29/18 A301 RMK A01 T02870183  RH  054%=      5-min Rain = 0
KMC5 041557Z 02010KT 29/18 A301 RMK A01 T02860183  RH  054%=      5-min Rain = 0
KMC5 041558Z 02008KT 29/18 A301 RMK A01 T02850182  RH  054%=      5-min Rain = 0
KMC5 041559Z 03007KT 29/18 A301 RMK A01 T02850180  RH  053%=      5-min Rain = 0
KMC5 041600Z 03011KT 29/18 A301 RMK A01 T02850180  RH  053%=      5-min Rain = 0
KMC5 041601Z 03011KT 29/18 A301 RMK A01 T02870180  RH  052%=      5-min Rain = 0
KMC5 041602Z 04010KT 29/18 A301 RMK A01 T02890180  RH  052%=      5-min Rain = 0
KMC5 041603Z 05010KT 29/18 A301 RMK A01 T02880176  RH  051%=      5-min Rain = 0
KMC5 041604Z 03010KT 29/18 A301 RMK A01 T02860175  RH  051%=      5-min Rain = 0
KMC5 041605Z 03011KT 29/17 A301 RMK A01 T02880174  RH  050%=      5-min Rain = 0
KMC5 041606Z 03007KT 29/18 A301 RMK A01 T02850176  RH  052%=      5-min Rain = 0
KMC5 041607Z 04009KT 29/17 A301 RMK A01 T02850172  RH  051%=      5-min Rain = 0
KMC5 041608Z 04010KT 28/18 A301 RMK A01 T02840177  RH  052%=      5-min Rain = 0
KMC5 041609Z 04009KT 28/18 A301 RMK A01 T02830176  RH  052%=      5-min Rain = 0
KMC5 041610Z 03007KT 28/18 A301 RMK A01 T02820178  RH  053%=      5-min Rain = 0
KMC5 041611Z 05009KT 28/18 A301 RMK A01 T02820177  RH  053%=      5-min Rain = 0
KMC5 041612Z 06010KT 28/17 A301 RMK A01 T02830172  RH  051%=      5-min Rain = 0
KMC5 041613Z 05011KT 28/17 A301 RMK A01 T02820166  RH  049%=      5-min Rain = 0
KMC5 041614Z 05010KT 28/16 A301 RMK A01 T02810163  RH  048%=      5-min Rain = 0
KMC5 041615Z 05009KT 28/16 A301 RMK A01 T02830164  RH  048%=      5-min Rain = 0
KMC5 041616Z 05009KT 29/17 A301 RMK A01 T02860171  RH  050%=      5-min Rain = 0
KMC5 041617Z 05008KT 29/17 A301 RMK A01 T02860173  RH  050%=      5-min Rain = 0
KMC5 041618Z 05010KT 29/18 A301 RMK A01 T02870176  RH  051%=      5-min Rain = 0
KMC5 041619Z 05008KT 29/18 A301 RMK A01 T02900177  RH  050%=      5-min Rain = 0
KMC5 041620Z 05009KT 29/18 A301 RMK A01 T02930177  RH  050%=      5-min Rain = 0
KMC5 041621Z 03008KT 29/18 A301 RMK A01 T02920178  RH  050%=      5-min Rain = 0
KMC5 041622Z 06010G15KT 29/18 A301 RMK A01 T02930180  RH  050%=      5-min Rain = 0
KMC5 041623Z 05011KT 30/18 A301 RMK A01 T02960180  RH  050%=      5-min Rain = 0
KMC5 041624Z 06010KT 29/18 A301 RMK A01 T02940179  RH  050%=      5-min Rain = 0
KMC5 041625Z 06009KT 29/18 A301 RMK A01 T02920177  RH  050%=      5-min Rain = 0
KMC5 041626Z 06010KT 29/18 A301 RMK A01 T02940176  RH  049%=      5-min Rain = 0
KMC5 041627Z 05009KT 29/18 A301 RMK A01 T02930178  RH  050%=      5-min Rain = 0
KMC5 041628Z 06010KT 29/18 A301 RMK A01 T02940183  RH  051%=      5-min Rain = 0
KMC5 041629Z 06009KT 29/18 A301 RMK A01 T02930181  RH  051%=      5-min Rain = 0
KMC5 041630Z 05011KT 29/18 A301 RMK A01 T02910181  RH  052%=      5-min Rain = 0
KMC5 041631Z 05012KT 29/18 A301 RMK A01 T02930177  RH  050%=      5-min Rain = 0
KMC5 041632Z 04012KT 29/18 A301 RMK A01 T02940181  RH  051%=      5-min Rain = 0
KMC5 041633Z 04010KT 29/18 A301 RMK A01 T02930183  RH  052%=      5-min Rain = 0
KMC5 041634Z 03010KT 29/18 A301 RMK A01 T02920183  RH  052%=      5-min Rain = 0
KMC5 041635Z 02007KT 29/18 A301 RMK A01 T02900181  RH  052%=      5-min Rain = 0
KMC5 041636Z 05010KT 29/19 A301 RMK A01 T02910186  RH  053%=      5-min Rain = 0
KMC5 041637Z 03011KT 30/18 A301 RMK A01 T02960178  RH  049%=      5-min Rain = 0
KMC5 041638Z 05010KT 30/18 A301 RMK A01 T02960181  RH  050%=      5-min Rain = 0
KMC5 041639Z 06007KT 29/18 A3011 RMK A01 T02940175  RH  049%=      5-min Rain = 0
KMC5 041640Z 07008KT 29/18 A301 RMK A01 T02930182  RH  051%=      5-min Rain = 0
KMC5 041641Z 07010KT 29/18 A301 RMK A01 T02940177  RH  049%=      5-min Rain = 0
KMC5 041642Z 06010KT 30/18 A301 RMK A01 T02950182  RH  051%=      5-min Rain = 0
KMC5 041643Z 05010KT 29/18 A3011 RMK A01 T02940184  RH  052%=      5-min Rain = 0
KMC5 041644Z 05009KT 29/18 A3011 RMK A01 T02940181  RH  051%=      5-min Rain = 0
KMC5 041645Z 05008KT 29/18 A3011 RMK A01 T02940180  RH  050%=      5-min Rain = 0
KMC5 041646Z 06011KT 30/18 A3011 RMK A01 T02950180  RH  050%=      5-min Rain = 0
KMC5 041647Z 05008KT 30/18 A3011 RMK A01 T02960179  RH  049%=      5-min Rain = 0
KMC5 041648Z 05007KT 30/18 A3011 RMK A01 T02970180  RH  050%=      5-min Rain = 0
KMC5 041649Z 04010KT 30/18 A3011 RMK A01 T02970183  RH  050%=      5-min Rain = 0
KMC5 041650Z 04012KT 30/18 A3011 RMK A01 T02980184  RH  050%=      5-min Rain = 0
KMC5 041651Z 03009KT 30/18 A3011 RMK A01 T02970182  RH  050%=      5-min Rain = 0
KMC5 041652Z 03008KT 30/18 A3011 RMK A01 T02980184  RH  051%=      5-min Rain = 0
KMC5 041653Z 04008KT 30/19 A3011 RMK A01 T02980188  RH  051%=      5-min Rain = 0
KMC5 041654Z 06010KT 30/19 A3011 RMK A01 T03020190  RH  051%=      5-min Rain = 0
KMC5 041655Z 05011KT 30/19 A3011 RMK A01 T03020190  RH  051%=      5-min Rain = 0
KMC5 041656Z 04010KT 31/19 A3011 RMK A01 T03050188  RH  050%=      5-min Rain = 0
KMC5 041657Z 05011KT 31/19 A3011 RMK A01 T03100192  RH  049%=      5-min Rain = 0
KMC5 041658Z 04012KT 31/19 A3011 RMK A01 T03070186  RH  048%=      5-min Rain = 0
KMC5 041659Z 04010KT 30/18 A3011 RMK A01 T03000184  RH  050%=      5-min Rain = 0
KMC5 041700Z 04012KT 30/18 A3011 RMK A01 T02980183  RH  050%=      5-min Rain = 0
KMC5 041701Z 04011KT 30/18 A3011 RMK A01 T02970182  RH  050%=      5-min Rain = 0
KMC5 041702Z 04011KT 30/18 A3011 RMK A01 T02980183  RH  050%=      5-min Rain = 0
KMC5 041703Z 05012KT 30/18 A3011 RMK A01 T03000183  RH  050%=      5-min Rain = 0
KMC5 041704Z 07011KT 30/19 A3011 RMK A01 T03000185  RH  050%=      5-min Rain = 0
KMC5 041705Z 07010KT 30/18 A3011 RMK A01 T03000184  RH  050%=      5-min Rain = 0
KMC5 041706Z 07006G11KT 30/18 A3011 RMK A01 T02980181  RH  049%=      5-min Rain = 0
KMC5 041707Z 07011KT 30/18 A3011 RMK A01 T02980182  RH  050%=      5-min Rain = 0
KMC5 041708Z 08008KT 30/18 A3011 RMK A01 T03000179  RH  049%=      5-min Rain = 0
KMC5 041709Z 08007KT 30/18 A3011 RMK A01 T03000181  RH  049%=      5-min Rain = 0
KMC5 041710Z 06010KT 30/18 A3011 RMK A01 T03000182  RH  049%=      5-min Rain = 0
KMC5 041711Z 06009KT 30/18 A3011 RMK A01 T03010178  RH  048%=      5-min Rain = 0
KMC5 041712Z 04009KT 30/18 A3011 RMK A01 T03010183  RH  049%=      5-min Rain = 0
KMC5 041713Z 05009KT 31/18 A3011 RMK A01 T03060182  RH  047%=      5-min Rain = 0
KMC5 041714Z 06008KT 31/18 A3011 RMK A01 T03060181  RH  047%=      5-min Rain = 0
KMC5 041715Z 04011KT 30/18 A3011 RMK A01 T03040183  RH  048%=      5-min Rain = 0
KMC5 041716Z 04009KT 31/18 A3011 RMK A01 T03080176  RH  045%=      5-min Rain = 0
KMC5 041717Z 05009KT 31/18 A3011 RMK A01 T03050177  RH  046%=      5-min Rain = 0
KMC5 041718Z 05010KT 30/18 A3011 RMK A01 T03030177  RH  047%=      5-min Rain = 0
KMC5 041719Z 05011KT 30/18 A3011 RMK A01 T03020175  RH  047%=      5-min Rain = 0
KMC5 041720Z 05007KT 30/18 A3011 RMK A01 T03020175  RH  046%=      5-min Rain = 0
KMC5 041721Z 06009KT 30/18 A3011 RMK A01 T03030178  RH  047%=      5-min Rain = 0
KMC5 041722Z 06008KT 31/18 A3011 RMK A01 T03050179  RH  047%=      5-min Rain = 0
KMC5 041723Z 07011KT 31/18 A3011 RMK A01 T03070178  RH  046%=      5-min Rain = 0
KMC5 041724Z 08006KT 31/18 A3011 RMK A01 T03060181  RH  047%=      5-min Rain = 0
KMC5 041725Z 05010KT 31/18 A3011 RMK A01 T03080182  RH  047%=      5-min Rain = 0
KMC5 041726Z 05012KT 31/18 A3011 RMK A01 T03090183  RH  047%=      5-min Rain = 0
KMC5 041727Z 04009KT 31/18 A3011 RMK A01 T03090183  RH  047%=      5-min Rain = 0
KMC5 041728Z 08010KT 31/18 A3011 RMK A01 T03070182  RH  047%=      5-min Rain = 0
KMC5 041729Z 07008KT 31/18 A3011 RMK A01 T03070178  RH  046%=      5-min Rain = 0
KMC5 041730Z 07010KT 31/18 A3011 RMK A01 T03090179  RH  046%=      5-min Rain = 0
KMC5 041731Z 08009KT 31/18 A3011 RMK A01 T03090179  RH  046%=      5-min Rain = 0
KMC5 041732Z 09009KT 31/18 A3011 RMK A01 T03090175  RH  045%=      5-min Rain = 0
KMC5 041733Z 09008KT 31/18 A3011 RMK A01 T03070175  RH  045%=      5-min Rain = 0
KMC5 041734Z 08009KT 31/18 A3011 RMK A01 T03050180  RH  047%=      5-min Rain = 0
KMC5 041735Z 06011KT 30/18 A301 RMK A01 T03040184  RH  049%=      5-min Rain = 0
KMC5 041736Z 05013KT 31/18 A301 RMK A01 T03060184  RH  048%=      5-min Rain = 0
KMC5 041737Z 04013KT 31/18 A301 RMK A01 T03090182  RH  047%=      5-min Rain = 0
KMC5 041738Z 04012KT 31/18 A301 RMK A01 T03100182  RH  047%=      5-min Rain = 0
KMC5 041739Z 05011KT 31/18 A301 RMK A01 T03100181  RH  046%=      5-min Rain = 0
KMC5 041740Z 06009KT 31/18 A301 RMK A01 T03120181  RH  046%=      5-min Rain = 0
KMC5 041741Z 07008KT 31/18 A301 RMK A01 T03120178  RH  045%=      5-min Rain = 0
KMC5 041742Z 08008KT 31/18 A301 RMK A01 T03100176  RH  045%=      5-min Rain = 0
KMC5 041743Z 07010KT 31/18 A301 RMK A01 T03090176  RH  045%=      5-min Rain = 0
KMC5 041744Z 07010KT 31/18 A301 RMK A01 T03110182  RH  046%=      5-min Rain = 0
KMC5 041745Z 06010KT 31/18 A301 RMK A01 T03130179  RH  045%=      5-min Rain = 0
KMC5 041746Z 05012KT 31/18 A301 RMK A01 T03130182  RH  046%=      5-min Rain = 0
KMC5 041747Z 07010KT 31/18 A301 RMK A01 T03140177  RH  044%=      5-min Rain = 0
KMC5 041748Z 06009KT 31/18 A301 RMK A01 T03110178  RH  045%=      5-min Rain = 0
KMC5 041749Z 06010KT 31/18 A301 RMK A01 T03130176  RH  044%=      5-min Rain = 0
KMC5 041750Z 05011KT 31/18 A301 RMK A01 T03120178  RH  045%=      5-min Rain = 0
KMC5 041751Z 06012KT 31/18 A301 RMK A01 T03110179  RH  045%=      5-min Rain = 0
KMC5 041752Z 05012KT 31/18 A301 RMK A01 T03090177  RH  045%=      5-min Rain = 0
KMC5 041753Z 05011KT 31/18 A301 RMK A01 T03060177  RH  046%=      5-min Rain = 0
KMC5 041754Z 05010KT 30/18 A301 RMK A01 T03040177  RH  047%=      5-min Rain = 0
KMC5 041755Z 04009KT 30/18 A301 RMK A01 T03040180  RH  047%=      5-min Rain = 0
KMC5 041756Z 05009KT 31/18 A301 RMK A01 T03080177  RH  046%=      5-min Rain = 0
KMC5 041757Z 08010KT 31/18 A301 RMK A01 T03070177  RH  046%=      5-min Rain = 0
KMC5 041758Z 09008KT 31/18 A301 RMK A01 T03060175  RH  045%=      5-min Rain = 0
KMC5 041759Z 09008KT 31/17 A301 RMK A01 T03050174  RH  045%=      5-min Rain = 0
KMC5 041800Z 07010KT 31/18 A301 RMK A01 T03060176  RH  046%=      5-min Rain = 0
KMC5 041801Z 07011KT 31/17 A301 RMK A01 T03050173  RH  045%=      5-min Rain = 0
KMC5 041802Z 06008KT 30/17 A301 RMK A01 T03020171  RH  045%=      5-min Rain = 0
KMC5 041803Z 06007KT 30/17 A301 RMK A01 T02990169  RH  046%=      5-min Rain = 0
KMC5 041804Z 07006KT 30/17 A301 RMK A01 T02970170  RH  046%=      5-min Rain = 0
KMC5 041805Z 10004KT 30/17 A301 RMK A01 T02970167  RH  045%=      5-min Rain = 0
KMC5 041806Z 09006KT 30/17 A301 RMK A01 T02980170  RH  046%=      5-min Rain = 0
KMC5 041807Z 09006KT 30/17 A301 RMK A01 T03010166  RH  044%=      5-min Rain = 0
KMC5 041808Z 08004KT 30/17 A301 RMK A01 T03010166  RH  044%=      5-min Rain = 0
KMC5 041809Z 06005KT 30/17 A301 RMK A01 T03010172  RH  046%=      5-min Rain = 0
KMC5 041810Z 09007KT 30/17 A301 RMK A01 T03030171  RH  045%=      5-min Rain = 0
KMC5 041811Z 08008KT 30/17 A301 RMK A01 T03040174  RH  046%=      5-min Rain = 0
KMC5 041812Z 07010KT 31/17 A301 RMK A01 T03080174  RH  045%=      5-min Rain = 0
KMC5 041813Z 07007KT 31/17 A301 RMK A01 T03080171  RH  044%=      5-min Rain = 0
KMC5 041814Z 05007KT 31/17 A301 RMK A01 T03060170  RH  044%=      5-min Rain = 0
KMC5 041815Z 02005KT 30/17 A301 RMK A01 T03040171  RH  045%=      5-min Rain = 0
KMC5 041816Z 04008KT 30/18 A301 RMK A01 T03040176  RH  046%=      5-min Rain = 0
KMC5 041817Z 04009KT 31/17 A301 RMK A01 T03080174  RH  045%=      5-min Rain = 0
KMC5 041818Z 05008KT 31/17 A301 RMK A01 T03090174  RH  044%=      5-min Rain = 0
KMC5 041819Z 05008KT 31/17 A301 RMK A01 T03080172  RH  044%=      5-min Rain = 0
KMC5 041820Z 08007KT 31/17 A301 RMK A01 T03070173  RH  045%=      5-min Rain = 0
KMC5 041821Z 06006KT 31/17 A301 RMK A01 T03090173  RH  044%=      5-min Rain = 0
KMC5 041822Z 07007KT 31/18 A301 RMK A01 T03130175  RH  044%=      5-min Rain = 0
KMC5 041823Z 09009KT 31/18 A301 RMK A01 T03140175  RH  043%=      5-min Rain = 0
KMC5 041824Z 08011KT 32/18 A301 RMK A01 T03160182  RH  045%=      5-min Rain = 0
KMC5 041825Z 07011KT 32/18 A301 RMK A01 T03200177  RH  043%=      5-min Rain = 0
KMC5 041826Z 09010KT 32/18 A3009 RMK A01 T03170178  RH  043%=      5-min Rain = 0
KMC5 041827Z 09011KT 32/18 A301 RMK A01 T03170178  RH  043%=      5-min Rain = 0
KMC5 041828Z 08010KT 32/18 A3009 RMK A01 T03170177  RH  043%=      5-min Rain = 0
KMC5 041829Z 07013KT 32/18 A301 RMK A01 T03160176  RH  043%=      5-min Rain = 0
KMC5 041830Z 07011KT 31/17 A301 RMK A01 T03140172  RH  043%=      5-min Rain = 0
KMC5 041831Z 07010KT 31/17 A301 RMK A01 T03110174  RH  044%=      5-min Rain = 0
KMC5 041832Z 05009KT 31/17 A301 RMK A01 T03110173  RH  044%=      5-min Rain = 0
KMC5 041833Z 05010KT 31/17 A301 RMK A01 T03120174  RH  044%=      5-min Rain = 0
KMC5 041834Z 04008KT 31/17 A301 RMK A01 T03100173  RH  044%=      5-min Rain = 0
KMC5 041835Z 06007KT 31/17 A301 RMK A01 T03090173  RH  044%=      5-min Rain = 0
KMC5 041836Z 08007KT 31/17 A301 RMK A01 T03070173  RH  045%=      5-min Rain = 0
KMC5 041837Z 07011KT 31/18 A3009 RMK A01 T03070176  RH  046%=      5-min Rain = 0
KMC5 041838Z 06011KT 31/18 A3009 RMK A01 T03090176  RH  045%=      5-min Rain = 0
KMC5 041839Z 06011KT 31/18 A3009 RMK A01 T03080178  RH  046%=      5-min Rain = 0
KMC5 041840Z 05011KT 31/18 A3009 RMK A01 T03080177  RH  045%=      5-min Rain = 0
KMC5 041841Z 05010KT 31/18 A3009 RMK A01 T03080178  RH  046%=      5-min Rain = 0
KMC5 041842Z 05011KT 31/18 A3009 RMK A01 T03100176  RH  045%=      5-min Rain = 0
KMC5 041843Z 05007KT 31/18 A3009 RMK A01 T03120179  RH  045%=      5-min Rain = 0
KMC5 041844Z 06008KT 31/18 A3009 RMK A01 T03140176  RH  044%=      5-min Rain = 0
KMC5 041845Z 05008KT 31/18 A3009 RMK A01 T03130176  RH  044%=      5-min Rain = 0
KMC5 041846Z 06009KT 31/18 A3009 RMK A01 T03120178  RH  045%=      5-min Rain = 0
KMC5 041847Z 06007KT 31/18 A3009 RMK A01 T03120177  RH  045%=      5-min Rain = 0
KMC5 041848Z 08010KT 31/18 A3009 RMK A01 T03130181  RH  045%=      5-min Rain = 0
KMC5 041849Z 09010KT 32/18 A3009 RMK A01 T03170181  RH  045%=      5-min Rain = 0
KMC5 041850Z 08009KT 32/18 A3009 RMK A01 T03190177  RH  043%=      5-min Rain = 0
KMC5 041851Z 08008KT 31/17 A3009 RMK A01 T03130174  RH  043%=      5-min Rain = 0
KMC5 041852Z 08007KT 31/17 A3009 RMK A01 T03090173  RH  044%=      5-min Rain = 0
KMC5 041853Z 07009KT 31/17 A3009 RMK A01 T03060174  RH  045%=      5-min Rain = 0
KMC5 041854Z 07010KT 31/18 A3009 RMK A01 T03070176  RH  045%=      5-min Rain = 0
KMC5 041855Z 07012KT 31/18 A3009 RMK A01 T03090177  RH  045%=      5-min Rain = 0
KMC5 041856Z 07011KT 31/18 A3009 RMK A01 T03100176  RH  045%=      5-min Rain = 0
KMC5 041857Z 07011KT 31/18 A3009 RMK A01 T03100177  RH  045%=      5-min Rain = 0
KMC5 041858Z 08010KT 31/18 A3009 RMK A01 T03090175  RH  045%=      5-min Rain = 0
KMC5 041859Z 09009KT 31/18 A3009 RMK A01 T03080176  RH  045%=      5-min Rain = 0
KMC5 041900Z 09010KT 31/17 A3009 RMK A01 T03080174  RH  045%=      5-min Rain = 0
KMC5 041901Z 09009KT 31/17 A3009 RMK A01 T03080173  RH  045%=      5-min Rain = 0
KMC5 041902Z 09008KT 31/17 A3009 RMK A01 T03070174  RH  045%=      5-min Rain = 0
KMC5 041903Z 09007KT 31/17 A3009 RMK A01 T03070172  RH  044%=      5-min Rain = 0
KMC5 041904Z 10007KT 31/17 A3009 RMK A01 T03070172  RH  044%=      5-min Rain = 0
KMC5 041905Z 11006KT 31/17 A3009 RMK A01 T03070172  RH  044%=      5-min Rain = 0
KMC5 041906Z 10006KT 31/17 A3009 RMK A01 T03070172  RH  044%=      5-min Rain = 0
KMC5 041907Z 08008KT 31/18 A3009 RMK A01 T03090175  RH  045%=      5-min Rain = 0
KMC5 041908Z 08005KT 31/17 A3009 RMK A01 T03100171  RH  043%=      5-min Rain = 0
KMC5 041909Z 10002KT 31/17 A3008 RMK A01 T03080173  RH  044%=      5-min Rain = 0
KMC5 041910Z 09005G12KT 31/18 A3008 RMK A01 T03090178  RH  045%=      5-min Rain = 0
KMC5 041911Z 07011KT 31/18 A3008 RMK A01 T03140176  RH  044%=      5-min Rain = 0
KMC5 041912Z 07010KT 32/18 A3008 RMK A01 T03160177  RH  044%=      5-min Rain = 0
KMC5 041913Z 06012KT 32/18 A3008 RMK A01 T03170176  RH  043%=      5-min Rain = 0
KMC5 041914Z 06009KT 32/17 A3008 RMK A01 T03150174  RH  043%=      5-min Rain = 0
KMC5 041915Z 06007KT 31/18 A3008 RMK A01 T03130175  RH  044%=      5-min Rain = 0
KMC5 041916Z 07008KT 31/18 A3008 RMK A01 T03140175  RH  043%=      5-min Rain = 0
KMC5 041917Z 07010KT 31/18 A3008 RMK A01 T03140175  RH  044%=      5-min Rain = 0
KMC5 041918Z 07010KT 31/17 A3008 RMK A01 T03140174  RH  043%=      5-min Rain = 0
KMC5 041919Z 07007KT 31/17 A3008 RMK A01 T03140173  RH  043%=      5-min Rain = 0
KMC5 041920Z 07006KT 31/18 A3008 RMK A01 T03140176  RH  044%=      5-min Rain = 0
KMC5 041921Z 07008KT 32/18 A3008 RMK A01 T03180177  RH  043%=      5-min Rain = 0
KMC5 041922Z 07007KT 32/18 A3008 RMK A01 T03190175  RH  042%=      5-min Rain = 0
KMC5 041923Z 08005KT 32/17 A3008 RMK A01 T03180173  RH  042%=      5-min Rain = 0
KMC5 041924Z 08007KT 32/17 A3007 RMK A01 T03150174  RH  043%=      5-min Rain = 0
KMC5 041925Z 08005KT 32/17 A3007 RMK A01 T03150173  RH  043%=      5-min Rain = 0
KMC5 041926Z 07009KT 32/18 A3007 RMK A01 T03170180  RH  044%=      5-min Rain = 0
KMC5 041927Z 08006KT 32/18 A3007 RMK A01 T03200177  RH  043%=      5-min Rain = 0
KMC5 041928Z 07013KT 32/19 A3007 RMK A01 T03230185  RH  044%=      5-min Rain = 0
KMC5 041929Z 08012KT 33/18 A3007 RMK A01 T03260182  RH  042%=      5-min Rain = 0
KMC5 041930Z 07010KT 32/18 A3007 RMK A01 T03220184  RH  044%=      5-min Rain = 0
KMC5 041931Z 07010KT 32/18 A3007 RMK A01 T03210182  RH  044%=      5-min Rain = 0
KMC5 041932Z 06010KT 32/19 A3007 RMK A01 T03200185  RH  045%=      5-min Rain = 0
KMC5 041933Z 08010KT 32/19 A3007 RMK A01 T03220185  RH  044%=      5-min Rain = 0
KMC5 041934Z 09014KT 32/18 A3007 RMK A01 T03220183  RH  043%=      5-min Rain = 0
KMC5 041935Z 10013KT 32/18 A3006 RMK A01 T03230179  RH  042%=      5-min Rain = 0
KMC5 041936Z 10012KT 32/18 A3006 RMK A01 T03240182  RH  043%=      5-min Rain = 0
KMC5 041937Z 09009KT 33/18 A3006 RMK A01 T03260182  RH  042%=      5-min Rain = 0
KMC5 041938Z 09008KT 33/18 A3006 RMK A01 T03270181  RH  042%=      5-min Rain = 0
KMC5 041939Z 10006KT 33/18 A3006 RMK A01 T03250180  RH  042%=      5-min Rain = 0
KMC5 041940Z 08008KT 32/18 A3006 RMK A01 T03240182  RH  043%=      5-min Rain = 0
KMC5 041941Z 07010KT 33/19 A3006 RMK A01 T03260186  RH  044%=      5-min Rain = 0
KMC5 041942Z 08009KT 33/18 A3006 RMK A01 T03310184  RH  042%=      5-min Rain = 0
KMC5 041943Z 08006KT 33/18 A3006 RMK A01 T03270180  RH  042%=      5-min Rain = 0
KMC5 041944Z 08006KT 32/18 A3006 RMK A01 T03240184  RH  043%=      5-min Rain = 0
KMC5 041945Z 10011KT 33/18 A3006 RMK A01 T03250182  RH  043%=      5-min Rain = 0
KMC5 041946Z 09011KT 33/18 A3006 RMK A01 T03250182  RH  043%=      5-min Rain = 0
KMC5 041947Z 08010KT 33/18 A3006 RMK A01 T03270184  RH  043%=      5-min Rain = 0
KMC5 041948Z 07011KT 33/18 A3006 RMK A01 T03280184  RH  043%=      5-min Rain = 0
KMC5 041949Z 05012KT 33/18 A3006 RMK A01 T03280183  RH  042%=      5-min Rain = 0
KMC5 041950Z 05010KT 32/18 A3006 RMK A01 T03230180  RH  043%=      5-min Rain = 0
KMC5 041951Z 05012KT 32/18 A3006 RMK A01 T03180179  RH  044%=      5-min Rain = 0
KMC5 041952Z 09012KT 32/18 A3006 RMK A01 T03160180  RH  044%=      5-min Rain = 0
KMC5 041953Z 09010KT 31/18 A3006 RMK A01 T03140179  RH  045%=      5-min Rain = 0
KMC5 041954Z 08011KT 31/18 A3007 RMK A01 T03120180  RH  045%=      5-min Rain = 0
KMC5 041955Z 06011KT 31/18 A3006 RMK A01 T03100178  RH  045%=      5-min Rain = 0
KMC5 041956Z 05012KT 31/18 A3006 RMK A01 T03090177  RH  045%=      5-min Rain = 0
KMC5 041957Z 05013KT 31/18 A3006 RMK A01 T03070177  RH  046%=      5-min Rain = 0
KMC5 041958Z 06012KT 31/18 A3006 RMK A01 T03060177  RH  046%=      5-min Rain = 0
KMC5 041959Z 06010KT 31/18 A3006 RMK A01 T03060178  RH  046%=      5-min Rain = 0
KMC5 042000Z 06010KT 31/18 A3006 RMK A01 T03060179  RH  047%=      5-min Rain = 0
KMC5 042001Z 06010KT 31/18 A3006 RMK A01 T03050179  RH  047%=      5-min Rain = 0
KMC5 042002Z 07009KT 31/18 A3006 RMK A01 T03050180  RH  047%=      5-min Rain = 0
KMC5 042003Z 06007KT 31/18 A3006 RMK A01 T03050179  RH  047%=      5-min Rain = 0
KMC5 042004Z 05007KT 31/18 A3006 RMK A01 T03050181  RH  047%=      5-min Rain = 0
KMC5 042005Z 06008KT 31/18 A3006 RMK A01 T03050181  RH  048%=      5-min Rain = 0
KMC5 042006Z 07009KT 31/18 A3006 RMK A01 T03060180  RH  047%=      5-min Rain = 0
KMC5 042007Z 08008KT 31/18 A3005 RMK A01 T03050181  RH  048%=      5-min Rain = 0
KMC5 042008Z 07009KT 31/18 A3005 RMK A01 T03050181  RH  047%=      5-min Rain = 0
KMC5 042009Z 07008KT 30/18 A3005 RMK A01 T03040182  RH  048%=      5-min Rain = 0
KMC5 042010Z 06011KT 30/18 A3005 RMK A01 T03040183  RH  049%=      5-min Rain = 0
KMC5 042011Z 06010KT 30/18 A3005 RMK A01 T03040184  RH  049%=      5-min Rain = 0
KMC5 042012Z 06009KT 30/19 A3005 RMK A01 T03030185  RH  049%=      5-min Rain = 0
KMC5 042013Z 06011KT 30/18 A3005 RMK A01 T03030184  RH  049%=      5-min Rain = 0
KMC5 042014Z 06011KT 30/19 A3005 RMK A01 T03030185  RH  049%=      5-min Rain = 0
KMC5 042015Z 06014KT 30/19 A3005 RMK A01 T03020185  RH  049%=      5-min Rain = 0
KMC5 042016Z 06013KT 30/19 A3005 RMK A01 T03010185  RH  050%=      5-min Rain = 0
KMC5 042017Z 05012KT 30/19 A3005 RMK A01 T03010186  RH  050%=      5-min Rain = 0
KMC5 042018Z 05011KT 30/19 A3005 RMK A01 T03000185  RH  050%=      5-min Rain = 0
KMC5 042019Z 05011KT 30/19 A3005 RMK A01 T02990187  RH  051%=      5-min Rain = 0
KMC5 042020Z 05010KT 30/19 A3005 RMK A01 T02990188  RH  051%=      5-min Rain = 0
KMC5 042021Z 05011KT 30/19 A3005 RMK A01 T02990187  RH  051%=      5-min Rain = 0
KMC5 042022Z 05011KT 30/19 A3005 RMK A01 T02990186  RH  051%=      5-min Rain = 0
KMC5 042023Z 05010KT 30/19 A3005 RMK A01 T02980185  RH  051%=      5-min Rain = 0
KMC5 042024Z 05010KT 30/19 A3005 RMK A01 T02980186  RH  051%=      5-min Rain = 0
KMC5 042025Z 06010KT 30/19 A3005 RMK A01 T02990185  RH  051%=      5-min Rain = 0
KMC5 042026Z 05010KT 30/19 A3005 RMK A01 T02990187  RH  051%=      5-min Rain = 0
KMC5 042027Z 04010KT 30/19 A3005 RMK A01 T02990187  RH  051%=      5-min Rain = 0
KMC5 042028Z 04010KT 30/19 A3005 RMK A01 T02990188  RH  051%=      5-min Rain = 0
KMC5 042029Z 04009KT 30/19 A3005 RMK A01 T03000189  RH  052%=      5-min Rain = 0
KMC5 042030Z 04011KT 30/19 A3005 RMK A01 T03000188  RH  051%=      5-min Rain = 0
KMC5 042031Z 04010KT 30/19 A3005 RMK A01 T03000189  RH  051%=      5-min Rain = 0
KMC5 042032Z 04010KT 30/19 A3005 RMK A01 T03010190  RH  052%=      5-min Rain = 0
KMC5 042033Z 05009KT 30/19 A3004 RMK A01 T03010192  RH  052%=      5-min Rain = 0
KMC5 042034Z 06011KT 30/19 A3004 RMK A01 T03010191  RH  052%=      5-min Rain = 0
KMC5 042035Z 06011KT 30/19 A3004 RMK A01 T03010189  RH  051%=      5-min Rain = 0
KMC5 042036Z 06010KT 30/19 A3004 RMK A01 T03010187  RH  051%=      5-min Rain = 0
KMC5 042037Z 06009KT 30/19 A3004 RMK A01 T03000189  RH  051%=      5-min Rain = 0
KMC5 042038Z 06009KT 30/19 A3004 RMK A01 T03000189  RH  051%=      5-min Rain = 0
KMC5 042039Z 06010KT 30/19 A3004 RMK A01 T03000189  RH  051%=      5-min Rain = 0
KMC5 042040Z 06011KT 30/19 A3004 RMK A01 T03000187  RH  051%=      5-min Rain = 0
KMC5 042041Z 06010KT 30/19 A3004 RMK A01 T03010187  RH  050%=      5-min Rain = 0
KMC5 042042Z 05010KT 30/19 A3004 RMK A01 T03020188  RH  051%=      5-min Rain = 0
KMC5 042043Z 05009KT 30/19 A3004 RMK A01 T03020190  RH  051%=      5-min Rain = 0
KMC5 042044Z 04010KT 30/19 A3004 RMK A01 T03030189  RH  050%=      5-min Rain = 0
KMC5 042045Z 04010KT 30/19 A3004 RMK A01 T03030189  RH  050%=      5-min Rain = 0
KMC5 042046Z 04011KT 30/19 A3004 RMK A01 T03020188  RH  051%=      5-min Rain = 0
KMC5 042047Z 03010KT 30/19 A3004 RMK A01 T03020189  RH  051%=      5-min Rain = 0
KMC5 042048Z 04010KT 30/19 A3005 RMK A01 T03020188  RH  051%=      5-min Rain = 0
KMC5 042049Z 03011KT 30/19 A3005 RMK A01 T03030190  RH  051%=      5-min Rain = 0
KMC5 042050Z 03012KT 30/19 A3005 RMK A01 T03030188  RH  050%=      5-min Rain = 0
KMC5 042051Z 03011KT 30/19 A3005 RMK A01 T03030188  RH  050%=      5-min Rain = 0
KMC5 042052Z 03011KT 30/19 A3005 RMK A01 T03020190  RH  051%=      5-min Rain = 0
KMC5 042053Z 03010KT 30/19 A3005 RMK A01 T03020188  RH  050%=      5-min Rain = 0
KMC5 042054Z 03011KT 30/19 A3005 RMK A01 T03030190  RH  051%=      5-min Rain = 0
KMC5 042055Z 03010KT 30/19 A3005 RMK A01 T03020189  RH  051%=      5-min Rain = 0
KMC5 042056Z 04011KT 30/19 A3005 RMK A01 T03020189  RH  051%=      5-min Rain = 0
KMC5 042057Z 02012KT 30/19 A3005 RMK A01 T03010189  RH  051%=      5-min Rain = 0
KMC5 042058Z 00010KT 30/20 A3005 RMK A01 T03000196  RH  054%=      5-min Rain = 0
KMC5 042059Z 00010KT 29/20 A3005 RMK A01 T02940199  RH  057%=      5-min Rain = 0
KMC5 042100Z 01009KT 29/20 A3005 RMK A01 T02890199  RH  058%=      5-min Rain = 0
KMC5 042101Z 01009KT 29/20 A3004 RMK A01 T02860199  RH  059%=      5-min Rain = 0
KMC5 042102Z 03008KT 29/20 A3004 RMK A01 T02860200  RH  060%=      5-min Rain = 0
KMC5 042103Z 03008KT 29/20 A3004 RMK A01 T02860200  RH  060%=      5-min Rain = 0
KMC5 042104Z 03008KT 29/20 A3005 RMK A01 T02860198  RH  059%=      5-min Rain = 0
KMC5 042105Z 04007KT 29/20 A3005 RMK A01 T02880200  RH  059%=      5-min Rain = 0
KMC5 042106Z 04006KT 29/20 A3005 RMK A01 T02890200  RH  059%=      5-min Rain = 0
KMC5 042107Z 07010KT 29/20 A3005 RMK A01 T02890196  RH  057%=      5-min Rain = 0
KMC5 042108Z 08010KT 29/19 A3005 RMK A01 T02900186  RH  053%=      5-min Rain = 0
KMC5 042109Z 08009KT 29/18 A3005 RMK A01 T02880183  RH  053%=      5-min Rain = 0
KMC5 042110Z 08008KT 29/18 A3005 RMK A01 T02850183  RH  054%=      5-min Rain = 0
KMC5 042111Z 08007KT 28/18 A3005 RMK A01 T02830183  RH  055%=      5-min Rain = 0
KMC5 042112Z 08007KT 28/18 A3005 RMK A01 T02820183  RH  055%=      5-min Rain = 0
KMC5 042113Z 08006KT 28/18 A3005 RMK A01 T02810184  RH  056%=      5-min Rain = 0
KMC5 042114Z 09010KT 28/19 A3005 RMK A01 T02810186  RH  056%=      5-min Rain = 0
KMC5 042115Z 10012G17KT 28/19 A3005 RMK A01 T02830189  RH  057%=      5-min Rain = 0
KMC5 042116Z 09012KT 28/19 A3005 RMK A01 T02820189  RH  057%=      5-min Rain = 0
KMC5 042117Z 08013KT 28/19 A3005 RMK A01 T02810190  RH  058%=      5-min Rain = 0
KMC5 042118Z 08015KT 28/19 A3005 RMK A01 T02800188  RH  057%=      5-min Rain = 0
KMC5 042119Z 08011KT 28/19 A3005 RMK A01 T02800188  RH  057%=      5-min Rain = 0
KMC5 042120Z 07012KT 28/19 A3005 RMK A01 T02770186  RH  058%=      5-min Rain = 0
KMC5 042121Z 08014G20KT 28/19 A3005 RMK A01 T02760186  RH  058%=      5-min Rain = 0
KMC5 042122Z 09015KT 28/19 A3005 RMK A01 T02750187  RH  059%=      5-min Rain = 0
KMC5 042123Z 08012KT 27/19 A3005 RMK A01 T02710188  RH  060%=      5-min Rain = 0
KMC5 042124Z 09013KT 27/19 A3005 RMK A01 T02720190  RH  061%=      5-min Rain = 0
KMC5 042125Z 08013KT 27/19 A3005 RMK A01 T02710192  RH  062%=      5-min Rain = 0
KMC5 042126Z 08015KT 27/19 A3005 RMK A01 T02710193  RH  063%=      5-min Rain = 0
KMC5 042127Z 08014KT 27/19 A3005 RMK A01 T02720192  RH  062%=      5-min Rain = 0
KMC5 042128Z 08020KT 27/19 A3005 RMK A01 T02740194  RH  062%=      5-min Rain = 0
KMC5 042129Z 09021KT 27/20 A3005 RMK A01 T02700195  RH  063%=      5-min Rain = 0
KMC5 042130Z 08018KT 27/20 A3005 RMK A01 T02650196  RH  066%=      5-min Rain = 0
KMC5 042131Z 08013KT 26/20 A3005 RMK A01 T02640197  RH  066%=      5-min Rain = 0
KMC5 042132Z 08012KT 27/20 A3005 RMK A01 T02650198  RH  067%=      5-min Rain = 0
KMC5 042133Z 08014KT 27/20 A3005 RMK A01 T02660196  RH  066%=      5-min Rain = 0
KMC5 042134Z 08014KT 27/20 A3005 RMK A01 T02660197  RH  066%=      5-min Rain = 0
KMC5 042135Z 07015KT 27/20 A3005 RMK A01 T02660196  RH  065%=      5-min Rain = 0
KMC5 042136Z 08012KT 27/20 A3005 RMK A01 T02660196  RH  065%=      5-min Rain = 0
KMC5 042137Z 08014KT 27/20 A3005 RMK A01 T02690195  RH  064%=      5-min Rain = 0
KMC5 042138Z 08014KT 27/19 A3004 RMK A01 T02690192  RH  062%=      5-min Rain = 0
KMC5 042139Z 08014KT 27/19 A3004 RMK A01 T02690189  RH  062%=      5-min Rain = 0
KMC5 042140Z 08011KT 27/19 A3004 RMK A01 T02670188  RH  062%=      5-min Rain = 0
KMC5 042141Z 08013KT 27/19 A3004 RMK A01 T02680185  RH  060%=      5-min Rain = 0
KMC5 042142Z 08013KT 27/18 A3004 RMK A01 T02690180  RH  058%=      5-min Rain = 0
KMC5 042143Z 08013KT 27/18 A3004 RMK A01 T02710181  RH  058%=      5-min Rain = 0
KMC5 042144Z 08013KT 27/18 A3004 RMK A01 T02710180  RH  057%=      5-min Rain = 0
KMC5 042145Z 08012KT 27/18 A3004 RMK A01 T02730181  RH  057%=      5-min Rain = 0
KMC5 042146Z 08012KT 28/18 A3004 RMK A01 T02790181  RH  055%=      5-min Rain = 0
KMC5 042147Z 08012KT 28/18 A3004 RMK A01 T02830182  RH  054%=      5-min Rain = 0
KMC5 042148Z 08011KT 28/18 A3004 RMK A01 T02840182  RH  054%=      5-min Rain = 0
KMC5 042149Z 09014KT 28/18 A3004 RMK A01 T02840180  RH  053%=      5-min Rain = 0
KMC5 042150Z 08013KT 28/18 A3003 RMK A01 T02830179  RH  053%=      5-min Rain = 0
KMC5 042151Z 08012KT 28/18 A3003 RMK A01 T02820180  RH  054%=      5-min Rain = 0
KMC5 042152Z 07011KT 28/18 A3003 RMK A01 T02820181  RH  055%=      5-min Rain = 0
KMC5 042153Z 08012KT 28/18 A3003 RMK A01 T02830181  RH  054%=      5-min Rain = 0
KMC5 042154Z 07010KT 28/18 A3003 RMK A01 T02840182  RH  054%=      5-min Rain = 0
KMC5 042155Z 06011KT 29/18 A3003 RMK A01 T02850182  RH  054%=      5-min Rain = 0
KMC5 042156Z 06012KT 29/18 A3003 RMK A01 T02860184  RH  054%=      5-min Rain = 0
KMC5 042157Z 07014KT 29/18 A3003 RMK A01 T02880183  RH  053%=      5-min Rain = 0
KMC5 042158Z 06014KT 29/19 A3003 RMK A01 T02910185  RH  053%=      5-min Rain = 0
KMC5 042159Z 06016KT 29/19 A3003 RMK A01 T02940185  RH  052%=      5-min Rain = 0
KMC5 042200Z 06015KT 30/19 A3003 RMK A01 T02950185  RH  052%=      5-min Rain = 0
KMC5 042201Z 06016KT 30/18 A3003 RMK A01 T02960180  RH  050%=      5-min Rain = 0
KMC5 042202Z 06013KT 30/18 A3003 RMK A01 T02960180  RH  050%=      5-min Rain = 0
KMC5 042203Z 06012KT 30/18 A3003 RMK A01 T02950180  RH  050%=      5-min Rain = 0
KMC5 042204Z 05015KT 30/18 A3003 RMK A01 T02960179  RH  049%=      5-min Rain = 0
KMC5 042205Z 06012KT 30/18 A3003 RMK A01 T02980179  RH  049%=      5-min Rain = 0
KMC5 042206Z 05015KT 30/18 A3002 RMK A01 T03010179  RH  048%=      5-min Rain = 0
KMC5 042207Z 07016KT 30/18 A3003 RMK A01 T03030179  RH  048%=      5-min Rain = 0
KMC5 042208Z 06018KT 30/18 A3003 RMK A01 T03020177  RH  047%=      5-min Rain = 0
KMC5 042209Z 06017KT 30/18 A3003 RMK A01 T03000177  RH  048%=      5-min Rain = 0
KMC5 042210Z 06018KT 30/18 A3003 RMK A01 T02980176  RH  048%=      5-min Rain = 0
KMC5 042211Z 06019KT 30/18 A3002 RMK A01 T02970177  RH  048%=      5-min Rain = 0
KMC5 042212Z 06020KT 30/18 A3002 RMK A01 T02970180  RH  049%=      5-min Rain = 0
KMC5 042213Z 06020KT 30/18 A3002 RMK A01 T02990180  RH  049%=      5-min Rain = 0
KMC5 042214Z 07020KT 30/18 A3002 RMK A01 T02980181  RH  049%=      5-min Rain = 0
KMC5 042215Z 06019KT 30/18 A3002 RMK A01 T02980181  RH  050%=      5-min Rain = 0
KMC5 042216Z 07019KT 30/18 A3002 RMK A01 T02960180  RH  050%=      5-min Rain = 0
KMC5 042217Z 06014KT 30/18 A3002 RMK A01 T02970183  RH  050%=      5-min Rain = 0
KMC5 042218Z 06015G20KT 30/19 A3002 RMK A01 T03020185  RH  050%=      5-min Rain = 0
KMC5 042219Z 06016KT 30/18 A3002 RMK A01 T03040184  RH  049%=      5-min Rain = 0
KMC5 042220Z 05017KT 30/18 A3002 RMK A01 T03040184  RH  049%=      5-min Rain = 0
KMC5 042221Z 06018KT 31/18 A3002 RMK A01 T03050184  RH  048%=      5-min Rain = 0
KMC5 042222Z 05020KT 31/18 A3002 RMK A01 T03060182  RH  048%=      5-min Rain = 0
KMC5 042223Z 06019KT 30/18 A3002 RMK A01 T03040180  RH  048%=      5-min Rain = 0
KMC5 042224Z 07017KT 30/18 A3002 RMK A01 T03030182  RH  049%=      5-min Rain = 0
KMC5 042225Z 07016KT 30/18 A3002 RMK A01 T03040181  RH  048%=      5-min Rain = 0
KMC5 042226Z 06018KT 30/18 A3002 RMK A01 T03040181  RH  048%=      5-min Rain = 0
KMC5 042227Z 06018KT 30/18 A3002 RMK A01 T03040183  RH  048%=      5-min Rain = 0
KMC5 042228Z 07019KT 30/19 A3002 RMK A01 T03030185  RH  049%=      5-min Rain = 0
KMC5 042229Z 07019KT 30/18 A3002 RMK A01 T03000184  RH  050%=      5-min Rain = 0
KMC5 042230Z 07019KT 30/18 A3002 RMK A01 T03000184  RH  050%=      5-min Rain = 0
KMC5 042231Z 07016KT 30/19 A3002 RMK A01 T02990186  RH  051%=      5-min Rain = 0
KMC5 042232Z 07017G22KT 30/19 A3002 RMK A01 T03010186  RH  050%=      5-min Rain = 0
KMC5 042233Z 07018KT 30/18 A3002 RMK A01 T03030184  RH  049%=      5-min Rain = 0
KMC5 042234Z 07018KT 30/18 A3002 RMK A01 T03020183  RH  049%=      5-min Rain = 0
KMC5 042235Z 07019KT 30/18 A3002 RMK A01 T03010184  RH  049%=      5-min Rain = 0
KMC5 042236Z 07016KT 30/19 A3002 RMK A01 T03000186  RH  050%=      5-min Rain = 0
KMC5 042237Z 09016KT 30/19 A3002 RMK A01 T03000189  RH  051%=      5-min Rain = 0
KMC5 042238Z 10018KT 30/19 A3003 RMK A01 T03000190  RH  052%=      5-min Rain = 0
KMC5 042239Z 10018KT 30/19 A3003 RMK A01 T02970189  RH  052%=      5-min Rain = 0
KMC5 042240Z 09012G17KT 30/19 A3003 RMK A01 T02950191  RH  054%=      5-min Rain = 0
KMC5 042241Z 08015KT 30/19 A3003 RMK A01 T02970191  RH  053%=      5-min Rain = 0
KMC5 042242Z 08016KT 30/19 A3003 RMK A01 T02970193  RH  054%=      5-min Rain = 0
KMC5 042243Z 09016KT 30/19 A3003 RMK A01 T02970187  RH  052%=      5-min Rain = 0
KMC5 042244Z 09014KT 29/18 A3003 RMK A01 T02930184  RH  052%=      5-min Rain = 0
KMC5 042245Z 09015KT 29/19 A3003 RMK A01 T02930185  RH  052%=      5-min Rain = 0
KMC5 042246Z 09016KT 29/18 A3003 RMK A01 T02940183  RH  051%=      5-min Rain = 0
KMC5 042247Z 10015G20KT 29/18 A3003 RMK A01 T02920183  RH  052%=      5-min Rain = 0
KMC5 042248Z 10013KT 29/19 A3003 RMK A01 T02930185  RH  052%=      5-min Rain = 0
KMC5 042249Z 09015KT 30/19 A3003 RMK A01 T02960185  RH  051%=      5-min Rain = 0
KMC5 042250Z 09016KT 30/18 A3003 RMK A01 T02960183  RH  051%=      5-min Rain = 0
KMC5 042251Z 09014KT 29/19 A3003 RMK A01 T02930185  RH  052%=      5-min Rain = 0
KMC5 042252Z 09015KT 29/18 A3003 RMK A01 T02940184  RH  052%=      5-min Rain = 0
KMC5 042253Z 09013KT 29/19 A3003 RMK A01 T02930186  RH  053%=      5-min Rain = 0
KMC5 042254Z 09013KT 29/19 A3003 RMK A01 T02930185  RH  052%=      5-min Rain = 0
KMC5 042255Z 09012KT 30/19 A3003 RMK A01 T02950188  RH  053%=      5-min Rain = 0
KMC5 042256Z 10012KT 30/19 A3003 RMK A01 T02950188  RH  053%=      5-min Rain = 0
KMC5 042257Z 10014KT 30/19 A3003 RMK A01 T02950189  RH  053%=      5-min Rain = 0
KMC5 042258Z 10015KT 29/19 A3003 RMK A01 T02930189  RH  054%=      5-min Rain = 0
KMC5 042259Z 11016KT 29/19 A3003 RMK A01 T02910190  RH  055%=      5-min Rain = 0
KMC5 042300Z 11015KT 29/19 A3003 RMK A01 T02870194  RH  057%=      5-min Rain = 0
KMC5 042301Z 10017KT 29/19 A3003 RMK A01 T02860194  RH  058%=      5-min Rain = 0
KMC5 042302Z 11014KT 28/19 A3003 RMK A01 T02820192  RH  058%=      5-min Rain = 0
KMC5 042303Z 12013KT 28/19 A3003 RMK A01 T02800193  RH  059%=      5-min Rain = 0
KMC5 042304Z 12014KT 28/19 A3003 RMK A01 T02770191  RH  060%=      5-min Rain = 0
KMC5 042305Z 11016KT 28/19 A3004 RMK A01 T02750192  RH  060%=      5-min Rain = 0
KMC5 042306Z 12014KT 27/19 A3004 RMK A01 T02740192  RH  061%=      5-min Rain = 0
KMC5 042307Z 12015KT 27/19 A3004 RMK A01 T02740191  RH  061%=      5-min Rain = 0
KMC5 042308Z 11012KT 28/19 A3004 RMK A01 T02760193  RH  061%=      5-min Rain = 0
KMC5 042309Z 12014KT 28/19 A3004 RMK A01 T02790194  RH  060%=      5-min Rain = 0
KMC5 042310Z 11013KT 28/19 A3004 RMK A01 T02810193  RH  059%=      5-min Rain = 0
KMC5 042311Z 10014KT 28/19 A3004 RMK A01 T02820194  RH  059%=      5-min Rain = 0
KMC5 042312Z 10014KT 28/19 A3004 RMK A01 T02820193  RH  058%=      5-min Rain = 0
KMC5 042313Z 10013KT 28/19 A3003 RMK A01 T02830194  RH  059%=      5-min Rain = 0
KMC5 042314Z 11014KT 28/20 A3004 RMK A01 T02840195  RH  058%=      5-min Rain = 0
KMC5 042315Z 11012KT 29/20 A3003 RMK A01 T02860195  RH  058%=      5-min Rain = 0
KMC5 042316Z 12015KT 29/19 A3003 RMK A01 T02860194  RH  058%=      5-min Rain = 0
KMC5 042317Z 11013G19KT 29/19 A3003 RMK A01 T02860194  RH  058%=      5-min Rain = 0
KMC5 042318Z 10015KT 29/19 A3003 RMK A01 T02860193  RH  057%=      5-min Rain = 0
KMC5 042319Z 11014KT 29/20 A3003 RMK A01 T02850195  RH  058%=      5-min Rain = 0
KMC5 042320Z 11013KT 29/19 A3003 RMK A01 T02860193  RH  057%=      5-min Rain = 0
KMC5 042321Z 12014KT 29/19 A3003 RMK A01 T02860194  RH  057%=      5-min Rain = 0
KMC5 042322Z 13014KT 29/19 A3003 RMK A01 T02850193  RH  057%=      5-min Rain = 0
KMC5 042323Z 11014KT 28/20 A3003 RMK A01 T02830195  RH  059%=      5-min Rain = 0
KMC5 042324Z 13013KT 28/19 A3004 RMK A01 T02830194  RH  058%=      5-min Rain = 0
KMC5 042325Z 13011KT 28/19 A3003 RMK A01 T02830193  RH  058%=      5-min Rain = 0
KMC5 042326Z 13010KT 28/20 A3003 RMK A01 T02820195  RH  059%=      5-min Rain = 0
KMC5 042327Z 14012KT 28/19 A3003 RMK A01 T02820193  RH  059%=      5-min Rain = 0
KMC5 042328Z 14012KT 28/19 A3003 RMK A01 T02800193  RH  059%=      5-min Rain = 0
KMC5 042329Z 14013KT 28/19 A3003 RMK A01 T02800192  RH  059%=      5-min Rain = 0
KMC5 042330Z 13012KT 28/19 A3003 RMK A01 T02800193  RH  059%=      5-min Rain = 0
KMC5 042331Z 12012G17KT 28/19 A3003 RMK A01 T02800190  RH  058%=      5-min Rain = 0
KMC5 042332Z 11013KT 28/19 A3003 RMK A01 T02790189  RH  058%=      5-min Rain = 0
KMC5 042333Z 11013KT 28/19 A3003 RMK A01 T02780188  RH  058%=      5-min Rain = 0
KMC5 042334Z 11013KT 28/19 A3003 RMK A01 T02780188  RH  058%=      5-min Rain = 0
KMC5 042335Z 11012KT 28/19 A3003 RMK A01 T02770186  RH  058%=      5-min Rain = 0
KMC5 042336Z 12011KT 28/19 A3003 RMK A01 T02770187  RH  058%=      5-min Rain = 0
KMC5 042337Z 13012KT 28/19 A3003 RMK A01 T02780187  RH  058%=      5-min Rain = 0
KMC5 042338Z 11014KT 28/19 A3003 RMK A01 T02780186  RH  057%=      5-min Rain = 0
KMC5 042339Z 11013KT 28/19 A3003 RMK A01 T02780185  RH  057%=      5-min Rain = 0
KMC5 042340Z 10013KT 28/19 A3003 RMK A01 T02780187  RH  057%=      5-min Rain = 0
KMC5 042341Z 11013KT 28/19 A3003 RMK A01 T02810187  RH  057%=      5-min Rain = 0
KMC5 042342Z 12013KT 28/19 A3003 RMK A01 T02810186  RH  056%=      5-min Rain = 0
KMC5 042343Z 12013KT 28/19 A3003 RMK A01 T02820185  RH  056%=      5-min Rain = 0
KMC5 042344Z 12015KT 28/18 A3003 RMK A01 T02820184  RH  056%=      5-min Rain = 0
KMC5 042345Z 12015KT 28/18 A3003 RMK A01 T02810183  RH  055%=      5-min Rain = 0
KMC5 042346Z 12013KT 28/18 A3003 RMK A01 T02790184  RH  056%=      5-min Rain = 0
KMC5 042347Z 13013KT 28/18 A3003 RMK A01 T02790184  RH  056%=      5-min Rain = 0
KMC5 042348Z 13012KT 28/18 A3003 RMK A01 T02790183  RH  056%=      5-min Rain = 0
KMC5 042349Z 13013KT 28/18 A3003 RMK A01 T02790182  RH  056%=      5-min Rain = 0
KMC5 042350Z 13012KT 28/18 A3003 RMK A01 T02800180  RH  054%=      5-min Rain = 0
KMC5 042351Z 12013KT 28/18 A3003 RMK A01 T02820180  RH  054%=      5-min Rain = 0
KMC5 042352Z 11011KT 28/18 A3002 RMK A01 T02820179  RH  053%=      5-min Rain = 0
KMC5 042353Z 10011KT 28/18 A3002 RMK A01 T02820179  RH  054%=      5-min Rain = 0
KMC5 042354Z 10009KT 28/18 A3002 RMK A01 T02810180  RH  054%=      5-min Rain = 0
KMC5 042355Z 11010KT 28/18 A3002 RMK A01 T02820180  RH  054%=      5-min Rain = 0
KMC5 042356Z 11011KT 28/18 A3002 RMK A01 T02840179  RH  053%=      5-min Rain = 0
KMC5 042357Z 12012KT 28/18 A3002 RMK A01 T02840177  RH  052%=      5-min Rain = 0
KMC5 042358Z 12011KT 28/18 A3002 RMK A01 T02830178  RH  053%=      5-min Rain = 0
KMC5 042359Z 12011KT 28/18 A3002 RMK A01 T02830176  RH  052%=      5-min Rain = 0
KMC5 050000Z 12012KT 28/18 A3002 RMK A01 T02820177  RH  053%=      5-min Rain = 0
KMC5 050001Z 12011KT 28/18 A3002 RMK A01 T02820176  RH  052%=      5-min Rain = 0
KMC5 050002Z 11011KT 28/18 A3002 RMK A01 T02810177  RH  053%=      5-min Rain = 0
KMC5 050003Z 11010KT 28/18 A3002 RMK A01 T02810178  RH  053%=      5-min Rain = 0
KMC5 050004Z 11008KT 28/18 A3002 RMK A01 T02820179  RH  053%=      5-min Rain = 0
KMC5 050005Z 11008KT 28/18 A3002 RMK A01 T02840179  RH  053%=      5-min Rain = 0
KMC5 050006Z 11008KT 29/18 A3002 RMK A01 T02850179  RH  053%=      5-min Rain = 0
KMC5 050007Z 10007KT 29/18 A3002 RMK A01 T02850179  RH  053%=      5-min Rain = 0
KMC5 050008Z 11009KT 29/18 A3002 RMK A01 T02860179  RH  052%=      5-min Rain = 0
KMC5 050009Z 09009KT 29/18 A3002 RMK A01 T02870177  RH  052%=      5-min Rain = 0
KMC5 050010Z 10010KT 29/18 A3002 RMK A01 T02880176  RH  051%=      5-min Rain = 0
KMC5 050011Z 11010KT 29/18 A3002 RMK A01 T02870175  RH  050%=      5-min Rain = 0
KMC5 050012Z 11013KT 29/17 A3002 RMK A01 T02870172  RH  050%=      5-min Rain = 0
KMC5 050013Z 11013KT 29/17 A3002 RMK A01 T02870170  RH  049%=      5-min Rain = 0
KMC5 050014Z 12013KT 29/17 A3002 RMK A01 T02850171  RH  050%=      5-min Rain = 0
KMC5 050015Z 11014KT 29/17 A3001 RMK A01 T02850170  RH  050%=      5-min Rain = 0
KMC5 050016Z 11014KT 28/17 A3001 RMK A01 T02830166  RH  049%=      5-min Rain = 0
KMC5 050017Z 12013KT 28/17 A3001 RMK A01 T02820167  RH  050%=      5-min Rain = 0
KMC5 050018Z 12014KT 28/17 A3001 RMK A01 T02820166  RH  049%=      5-min Rain = 0
KMC5 050019Z 12015KT 28/17 A3001 RMK A01 T02810166  RH  049%=      5-min Rain = 0
KMC5 050020Z 12014KT 28/17 A3002 RMK A01 T02800166  RH  050%=      5-min Rain = 0
KMC5 050021Z 12013KT 28/17 A3002 RMK A01 T02800167  RH  050%=      5-min Rain = 0
KMC5 050022Z 11015KT 28/17 A3002 RMK A01 T02800168  RH  050%=      5-min Rain = 0
KMC5 050023Z 12012KT 28/17 A3001 RMK A01 T02790168  RH  051%=      5-min Rain = 0
KMC5 050024Z 11009KT 28/17 A3001 RMK A01 T02790170  RH  052%=      5-min Rain = 0
KMC5 050025Z 11010KT 28/17 A3001 RMK A01 T02790170  RH  052%=      5-min Rain = 0
KMC5 050026Z 10010KT 28/17 A3001 RMK A01 T02790169  RH  051%=      5-min Rain = 0
KMC5 050027Z 11009KT 28/17 A3001 RMK A01 T02780170  RH  052%=      5-min Rain = 0
KMC5 050028Z 10006KT 28/17 A3001 RMK A01 T02780174  RH  053%=      5-min Rain = 0
KMC5 050029Z 10008KT 28/18 A3001 RMK A01 T02790176  RH  053%=      5-min Rain = 0
KMC5 050030Z 12008KT 28/18 A3001 RMK A01 T02790178  RH  054%=      5-min Rain = 0
KMC5 050031Z 11009KT 28/17 A3001 RMK A01 T02790173  RH  053%=      5-min Rain = 0
KMC5 050032Z 10011KT 28/17 A3001 RMK A01 T02780174  RH  053%=      5-min Rain = 0
KMC5 050033Z 11009KT 28/17 A3001 RMK A01 T02770173  RH  053%=      5-min Rain = 0
KMC5 050034Z 11009KT 28/17 A3001 RMK A01 T02770173  RH  053%=      5-min Rain = 0
KMC5 050035Z 11008KT 28/17 A3001 RMK A01 T02760173  RH  053%=      5-min Rain = 0
KMC5 050036Z 11009KT 28/17 A3001 RMK A01 T02760172  RH  053%=      5-min Rain = 0
KMC5 050037Z 11009KT 28/17 A3001 RMK A01 T02760172  RH  053%=      5-min Rain = 0
KMC5 050038Z 12009KT 28/17 A3001 RMK A01 T02750169  RH  052%=      5-min Rain = 0
KMC5 050039Z 12010KT 28/17 A3001 RMK A01 T02750167  RH  052%=      5-min Rain = 0
KMC5 050040Z 12009KT 27/17 A3001 RMK A01 T02730167  RH  052%=      5-min Rain = 0
KMC5 050041Z 12010KT 27/17 A3002 RMK A01 T02730169  RH  053%=      5-min Rain = 0
KMC5 050042Z 12009KT 27/17 A3002 RMK A01 T02730169  RH  053%=      5-min Rain = 0
KMC5 050043Z 12009KT 27/17 A3002 RMK A01 T02730169  RH  053%=      5-min Rain = 0
KMC5 050044Z 12009KT 27/17 A3002 RMK A01 T02720170  RH  054%=      5-min Rain = 0
KMC5 050045Z 11008KT 27/17 A3002 RMK A01 T02720171  RH  054%=      5-min Rain = 0
KMC5 050046Z 11008KT 27/17 A3002 RMK A01 T02720170  RH  054%=      5-min Rain = 0
KMC5 050047Z 12008KT 27/17 A3002 RMK A01 T02720172  RH  054%=      5-min Rain = 0
KMC5 050048Z 12009KT 27/17 A3002 RMK A01 T02720172  RH  054%=      5-min Rain = 0
KMC5 050049Z 12008KT 27/17 A3002 RMK A01 T02720173  RH  055%=      5-min Rain = 0
KMC5 050050Z 13008KT 27/18 A3002 RMK A01 T02720175  RH  055%=      5-min Rain = 0
KMC5 050051Z 12008KT 27/18 A3002 RMK A01 T02710175  RH  056%=      5-min Rain = 0
KMC5 050052Z 12007KT 27/18 A3002 RMK A01 T02700177  RH  057%=      5-min Rain = 0
KMC5 050053Z 12008KT 27/18 A3002 RMK A01 T02700178  RH  057%=      5-min Rain = 0
KMC5 050054Z 12008KT 27/18 A3002 RMK A01 T02690179  RH  058%=      5-min Rain = 0
KMC5 050055Z 13009KT 27/18 A3002 RMK A01 T02680177  RH  057%=      5-min Rain = 0
KMC5 050056Z 12009KT 27/18 A3002 RMK A01 T02670177  RH  058%=      5-min Rain = 0
KMC5 050057Z 12009KT 27/18 A3002 RMK A01 T02660177  RH  058%=      5-min Rain = 0
KMC5 050058Z 11008KT 27/18 A3002 RMK A01 T02660177  RH  058%=      5-min Rain = 0
KMC5 050059Z 12007KT 27/18 A3002 RMK A01 T02660178  RH  058%=      5-min Rain = 0
KMC5 050100Z 11007KT 27/18 A3002 RMK A01 T02660179  RH  059%=      5-min Rain = 0
KMC5 050101Z 11006KT 27/18 A3002 RMK A01 T02660178  RH  059%=      5-min Rain = 0
KMC5 050102Z 10007KT 27/18 A3002 RMK A01 T02660178  RH  058%=      5-min Rain = 0
KMC5 050103Z 10008KT 27/17 A3002 RMK A01 T02660174  RH  057%=      5-min Rain = 0
KMC5 050104Z 10008KT 27/17 A3002 RMK A01 T02660174  RH  057%=      5-min Rain = 0
KMC5 050105Z 10007KT 27/17 A3002 RMK A01 T02660174  RH  057%=      5-min Rain = 0
KMC5 050106Z 11007KT 27/18 A3002 RMK A01 T02660175  RH  057%=      5-min Rain = 0
KMC5 050107Z 10006KT 27/18 A3002 RMK A01 T02650175  RH  058%=      5-min Rain = 0
KMC5 050108Z 10008KT 27/18 A3002 RMK A01 T02650176  RH  058%=      5-min Rain = 0
KMC5 050109Z 10007KT 27/18 A3002 RMK A01 T02650176  RH  058%=      5-min Rain = 0
KMC5 050110Z 10007KT 26/18 A3002 RMK A01 T02640176  RH  058%=      5-min Rain = 0
KMC5 050111Z 10008KT 26/18 A3002 RMK A01 T02630177  RH  059%=      5-min Rain = 0
KMC5 050112Z 10007KT 26/18 A3002 RMK A01 T02630177  RH  059%=      5-min Rain = 0
KMC5 050113Z 11006KT 26/18 A3002 RMK A01 T02620178  RH  060%=      5-min Rain = 0
KMC5 050114Z 11007KT 26/18 A3002 RMK A01 T02620179  RH  060%=      5-min Rain = 0
KMC5 050115Z 11007KT 26/18 A3002 RMK A01 T02620179  RH  060%=      5-min Rain = 0
KMC5 050116Z 13006KT 26/18 A3002 RMK A01 T02610180  RH  061%=      5-min Rain = 0
KMC5 050117Z 13005KT 26/18 A3002 RMK A01 T02610181  RH  061%=      5-min Rain = 0
KMC5 050118Z 13006KT 26/18 A3002 RMK A01 T02600182  RH  062%=      5-min Rain = 0
KMC5 050119Z 13007KT 26/18 A3002 RMK A01 T02590180  RH  062%=      5-min Rain = 0
KMC5 050120Z 11006KT 26/18 A3002 RMK A01 T02580180  RH  062%=      5-min Rain = 0
KMC5 050121Z 11006KT 26/18 A3002 RMK A01 T02580180  RH  062%=      5-min Rain = 0
KMC5 050122Z 10007KT 26/18 A3002 RMK A01 T02580181  RH  062%=      5-min Rain = 0
KMC5 050123Z 10006KT 26/18 A3002 RMK A01 T02580180  RH  062%=      5-min Rain = 0
KMC5 050124Z 10005KT 26/18 A3002 RMK A01 T02580181  RH  063%=      5-min Rain = 0
KMC5 050125Z 10006KT 26/18 A3002 RMK A01 T02570182  RH  063%=      5-min Rain = 0
KMC5 050126Z 11006KT 26/18 A3002 RMK A01 T02570181  RH  063%=      5-min Rain = 0
KMC5 050127Z 11006KT 26/18 A3002 RMK A01 T02570180  RH  063%=      5-min Rain = 0
KMC5 050128Z 10006KT 26/18 A3002 RMK A01 T02560181  RH  063%=      5-min Rain = 0
KMC5 050129Z 10005KT 26/18 A3002 RMK A01 T02560181  RH  063%=      5-min Rain = 0
KMC5 050130Z 10005KT 26/18 A3002 RMK A01 T02560181  RH  063%=      5-min Rain = 0
KMC5 050131Z 10004KT 26/18 A3002 RMK A01 T02550181  RH  064%=      5-min Rain = 0
KMC5 050132Z 10004KT 26/18 A3002 RMK A01 T02550182  RH  064%=      5-min Rain = 0
KMC5 050133Z 11005KT 25/18 A3002 RMK A01 T02540181  RH  064%=      5-min Rain = 0
KMC5 050134Z 11004KT 25/18 A3002 RMK A01 T02540181  RH  064%=      5-min Rain = 0
KMC5 050135Z 11004KT 25/18 A3002 RMK A01 T02530181  RH  064%=      5-min Rain = 0
KMC5 050136Z 11005KT 25/18 A3002 RMK A01 T02520182  RH  065%=      5-min Rain = 0
KMC5 050137Z 11005KT 25/18 A3002 RMK A01 T02520182  RH  065%=      5-min Rain = 0
KMC5 050138Z 12005KT 25/18 A3002 RMK A01 T02510182  RH  065%=      5-min Rain = 0
KMC5 050139Z 12004KT 25/18 A3002 RMK A01 T02500182  RH  066%=      5-min Rain = 0
KMC5 050140Z 12004KT 25/18 A3002 RMK A01 T02500182  RH  066%=      5-min Rain = 0
KMC5 050141Z 12004KT 25/18 A3002 RMK A01 T02490182  RH  066%=      5-min Rain = 0
KMC5 050142Z 12004KT 25/18 A3002 RMK A01 T02490181  RH  066%=      5-min Rain = 0
KMC5 050143Z 11004KT 25/18 A3002 RMK A01 T02490182  RH  066%=      5-min Rain = 0
KMC5 050144Z 11004KT 25/18 A3002 RMK A01 T02480182  RH  067%=      5-min Rain = 0
KMC5 050145Z 11003KT 25/18 A3002 RMK A01 T02470182  RH  067%=      5-min Rain = 0
KMC5 050146Z 13003KT 25/18 A3003 RMK A01 T02460182  RH  067%=      5-min Rain = 0
KMC5 050147Z 13003KT 25/18 A3003 RMK A01 T02460182  RH  067%=      5-min Rain = 0
KMC5 050148Z 14004KT 25/18 A3003 RMK A01 T02460182  RH  068%=      5-min Rain = 0
KMC5 050149Z 13003KT 25/18 A3003 RMK A01 T02450182  RH  068%=      5-min Rain = 0
KMC5 050150Z 12004KT 25/18 A3003 RMK A01 T02450182  RH  068%=      5-min Rain = 0
KMC5 050151Z 12004KT 25/18 A3003 RMK A01 T02450182  RH  068%=      5-min Rain = 0
KMC5 050152Z 11004KT 25/18 A3003 RMK A01 T02450181  RH  068%=      5-min Rain = 0
KMC5 050153Z 11004KT 25/18 A3003 RMK A01 T02450181  RH  067%=      5-min Rain = 0
KMC5 050154Z 11004KT 25/18 A3003 RMK A01 T02460181  RH  067%=      5-min Rain = 0
KMC5 050155Z 11004KT 25/18 A3003 RMK A01 T02460181  RH  067%=      5-min Rain = 0
KMC5 050156Z 11004KT 25/18 A3003 RMK A01 T02460181  RH  067%=      5-min Rain = 0
KMC5 050157Z 10004KT 25/18 A3003 RMK A01 T02460181  RH  067%=      5-min Rain = 0
KMC5 050158Z 10004KT 25/18 A3003 RMK A01 T02460181  RH  067%=      5-min Rain = 0
KMC5 050159Z 11004KT 25/18 A3003 RMK A01 T02470181  RH  067%=      5-min Rain = 0
KMC5 050200Z 11004KT 25/18 A3003 RMK A01 T02460181  RH  067%=      5-min Rain = 0
KMC5 050201Z 11004KT 25/18 A3003 RMK A01 T02460181  RH  067%=      5-min Rain = 0
KMC5 050202Z 12004KT 25/18 A3003 RMK A01 T02450181  RH  067%=      5-min Rain = 0
KMC5 050203Z 13004KT 24/18 A3003 RMK A01 T02440180  RH  068%=      5-min Rain = 0
KMC5 050204Z 14004KT 24/18 A3003 RMK A01 T02440181  RH  068%=      5-min Rain = 0
KMC5 050205Z 14004KT 24/18 A3003 RMK A01 T02430181  RH  068%=      5-min Rain = 0
KMC5 050206Z 14005KT 24/18 A3004 RMK A01 T02430180  RH  068%=      5-min Rain = 0
KMC5 050207Z 15006KT 24/18 A3004 RMK A01 T02430180  RH  068%=      5-min Rain = 0
KMC5 050208Z 15006KT 24/18 A3004 RMK A01 T02430180  RH  068%=      5-min Rain = 0
KMC5 050209Z 15006KT 24/18 A3004 RMK A01 T02430180  RH  068%=      5-min Rain = 0
KMC5 050210Z 15006KT 24/18 A3004 RMK A01 T02430180  RH  068%=      5-min Rain = 0
KMC5 050211Z 15006KT 24/18 A3004 RMK A01 T02430181  RH  068%=      5-min Rain = 0
KMC5 050212Z 15006KT 24/18 A3004 RMK A01 T02420180  RH  068%=      5-min Rain = 0
KMC5 050213Z 15006KT 24/18 A3004 RMK A01 T02420181  RH  068%=      5-min Rain = 0
KMC5 050214Z 16006KT 24/18 A3004 RMK A01 T02420180  RH  069%=      5-min Rain = 0
KMC5 050215Z 16006KT 24/18 A3004 RMK A01 T02410180  RH  069%=      5-min Rain = 0
KMC5 050216Z 16006KT 24/18 A3004 RMK A01 T02410180  RH  069%=      5-min Rain = 0
KMC5 050217Z 16006KT 24/18 A3004 RMK A01 T02410180  RH  069%=      5-min Rain = 0
KMC5 050218Z 15005KT 24/18 A3004 RMK A01 T02410180  RH  069%=      5-min Rain = 0
KMC5 050219Z 16006KT 24/18 A3004 RMK A01 T02410180  RH  069%=      5-min Rain = 0
KMC5 050220Z 15006KT 24/18 A3004 RMK A01 T02410181  RH  069%=      5-min Rain = 0
KMC5 050221Z 15006KT 24/18 A3004 RMK A01 T02410181  RH  069%=      5-min Rain = 0
KMC5 050222Z 15007KT 24/18 A3003 RMK A01 T02410181  RH  069%=      5-min Rain = 0
KMC5 050223Z 16007KT 24/18 A3003 RMK A01 T02410181  RH  069%=      5-min Rain = 0
KMC5 050224Z 15007KT 24/18 A3003 RMK A01 T02410181  RH  069%=      5-min Rain = 0
KMC5 050225Z 15006KT 24/18 A3003 RMK A01 T02410181  RH  069%=      5-min Rain = 0
KMC5 050226Z 15006KT 24/18 A3003 RMK A01 T02410181  RH  069%=      5-min Rain = 0
KMC5 050227Z 15006KT 24/18 A3003 RMK A01 T02410181  RH  069%=      5-min Rain = 0
KMC5 050228Z 15006KT 24/18 A3003 RMK A01 T02400181  RH  069%=      5-min Rain = 0
KMC5 050229Z 14007KT 24/18 A3003 RMK A01 T02410180  RH  069%=      5-min Rain = 0
KMC5 050230Z 13006KT 24/18 A3003 RMK A01 T02410179  RH  068%=      5-min Rain = 0
KMC5 050231Z 14007KT 24/18 A3003 RMK A01 T02410180  RH  068%=      5-min Rain = 0
KMC5 050232Z 14006KT 24/18 A3003 RMK A01 T02410179  RH  068%=      5-min Rain = 0
KMC5 050233Z 14007KT 24/18 A3003 RMK A01 T02410178  RH  068%=      5-min Rain = 0
KMC5 050234Z 14007KT 24/18 A3003 RMK A01 T02420177  RH  067%=      5-min Rain = 0
KMC5 050235Z 14007KT 24/18 A3003 RMK A01 T02430177  RH  067%=      5-min Rain = 0
KMC5 050236Z 15007KT 24/18 A3004 RMK A01 T02430177  RH  067%=      5-min Rain = 0
KMC5 050237Z 15007KT 24/18 A3004 RMK A01 T02430177  RH  067%=      5-min Rain = 0
KMC5 050238Z 15007KT 24/18 A3004 RMK A01 T02430177  RH  067%=      5-min Rain = 0
KMC5 050239Z 15006KT 24/18 A3004 RMK A01 T02430177  RH  067%=      5-min Rain = 0
KMC5 050240Z 14006KT 24/18 A3004 RMK A01 T02430176  RH  067%=      5-min Rain = 0
KMC5 050241Z 14006KT 24/18 A3004 RMK A01 T02420176  RH  067%=      5-min Rain = 0
KMC5 050242Z 14005KT 24/18 A3004 RMK A01 T02420176  RH  066%=      5-min Rain = 0
KMC5 050243Z 13006KT 24/18 A3004 RMK A01 T02420175  RH  066%=      5-min Rain = 0
KMC5 050244Z 13005KT 24/18 A3004 RMK A01 T02420176  RH  066%=      5-min Rain = 0
KMC5 050245Z 13005KT 24/18 A3004 RMK A01 T02420177  RH  067%=      5-min Rain = 0
KMC5 050246Z 13005KT 24/18 A3004 RMK A01 T02410177  RH  067%=      5-min Rain = 0
KMC5 050247Z 13005KT 24/18 A3004 RMK A01 T02390176  RH  068%=      5-min Rain = 0
KMC5 050248Z 13005KT 24/18 A3004 RMK A01 T02390176  RH  068%=      5-min Rain = 0
KMC5 050249Z 14006KT 24/18 A3004 RMK A01 T02380176  RH  068%=      5-min Rain = 0
KMC5 050250Z 14006KT 24/18 A3004 RMK A01 T02370176  RH  068%=      5-min Rain = 0
KMC5 050251Z 14006KT 24/18 A3004 RMK A01 T02360176  RH  069%=      5-min Rain = 0
KMC5 050252Z 14006KT 24/18 A3004 RMK A01 T02360175  RH  069%=      5-min Rain = 0
KMC5 050253Z 14006KT 24/18 A3004 RMK A01 T02350175  RH  069%=      5-min Rain = 0
KMC5 050254Z 14006KT 24/18 A3004 RMK A01 T02350176  RH  069%=      5-min Rain = 0
KMC5 050255Z 14006KT 24/18 A3004 RMK A01 T02360176  RH  069%=      5-min Rain = 0
KMC5 050256Z 14006KT 24/18 A3004 RMK A01 T02350176  RH  069%=      5-min Rain = 0
KMC5 050257Z 14006KT 24/18 A3004 RMK A01 T02350176  RH  069%=      5-min Rain = 0
KMC5 050258Z 14005KT 24/18 A3004 RMK A01 T02350176  RH  069%=      5-min Rain = 0
KMC5 050259Z 14005KT 24/18 A3004 RMK A01 T02350176  RH  069%=      5-min Rain = 0
KMC5 050300Z 14005KT 24/18 A3004 RMK A01 T02350176  RH  069%=      5-min Rain = 0
KMC5 050301Z 14005KT 23/18 A3004 RMK A01 T02340175  RH  069%=      5-min Rain = 0
KMC5 050302Z 14005KT 23/18 A3004 RMK A01 T02340175  RH  069%=      5-min Rain = 0
KMC5 050303Z 14005KT 23/18 A3004 RMK A01 T02340175  RH  069%=      5-min Rain = 0
KMC5 050304Z 15005KT 23/17 A3004 RMK A01 T02340174  RH  069%=      5-min Rain = 0
KMC5 050305Z 15005KT 23/17 A3004 RMK A01 T02340174  RH  069%=      5-min Rain = 0
KMC5 050306Z 15005KT 23/17 A3004 RMK A01 T02330174  RH  069%=      5-min Rain = 0
KMC5 050307Z 15005KT 23/17 A3004 RMK A01 T02340174  RH  069%=      5-min Rain = 0
KMC5 050308Z 16006KT 23/17 A3004 RMK A01 T02340174  RH  069%=      5-min Rain = 0
KMC5 050309Z 16006KT 23/17 A3004 RMK A01 T02330174  RH  069%=      5-min Rain = 0
KMC5 050310Z 16006KT 23/17 A3004 RMK A01 T02330174  RH  069%=      5-min Rain = 0
KMC5 050311Z 16005KT 23/17 A3004 RMK A01 T02330174  RH  070%=      5-min Rain = 0
KMC5 050312Z 16005KT 23/18 A3004 RMK A01 T02320175  RH  070%=      5-min Rain = 0
KMC5 050313Z 17005KT 23/18 A3004 RMK A01 T02320175  RH  070%=      5-min Rain = 0
KMC5 050314Z 17005KT 23/18 A3004 RMK A01 T02320175  RH  070%=      5-min Rain = 0
KMC5 050315Z 17005KT 23/17 A3004 RMK A01 T02310174  RH  070%=      5-min Rain = 0
KMC5 050316Z 17005KT 23/17 A3004 RMK A01 T02310174  RH  070%=      5-min Rain = 0
KMC5 050317Z 17005KT 23/17 A3004 RMK A01 T02310174  RH  070%=      5-min Rain = 0
KMC5 050318Z 17005KT 23/18 A3004 RMK A01 T02320175  RH  071%=      5-min Rain = 0
KMC5 050319Z 17005KT 23/18 A3004 RMK A01 T02320176  RH  071%=      5-min Rain = 0
KMC5 050320Z 17005KT 23/18 A3004 RMK A01 T02320176  RH  071%=      5-min Rain = 0
KMC5 050321Z 17005KT 23/18 A3004 RMK A01 T02320177  RH  071%=      5-min Rain = 0
KMC5 050322Z 17005KT 23/18 A3004 RMK A01 T02320177  RH  071%=      5-min Rain = 0
KMC5 050323Z 17005KT 23/18 A3004 RMK A01 T02310178  RH  072%=      5-min Rain = 0
KMC5 050324Z 17005KT 23/18 A3004 RMK A01 T02310177  RH  072%=      5-min Rain = 0
KMC5 050325Z 17004KT 23/18 A3004 RMK A01 T02310178  RH  072%=      5-min Rain = 0
KMC5 050326Z 16004KT 23/18 A3004 RMK A01 T02300178  RH  072%=      5-min Rain = 0
KMC5 050327Z 16004KT 23/18 A3004 RMK A01 T02310178  RH  072%=      5-min Rain = 0
KMC5 050328Z 16004KT 23/18 A3004 RMK A01 T02300178  RH  072%=      5-min Rain = 0
KMC5 050329Z 16004KT 23/18 A3004 RMK A01 T02300178  RH  073%=      5-min Rain = 0
KMC5 050330Z 16003KT 23/18 A3004 RMK A01 T02290178  RH  073%=      5-min Rain = 0
KMC5 050331Z 15003KT 23/18 A3004 RMK A01 T02290178  RH  073%=      5-min Rain = 0
KMC5 050332Z 16003KT 23/18 A3004 RMK A01 T02290178  RH  073%=      5-min Rain = 0
KMC5 050333Z 15004KT 23/18 A3004 RMK A01 T02290178  RH  073%=      5-min Rain = 0
KMC5 050334Z 15004KT 23/18 A3004 RMK A01 T02290178  RH  073%=      5-min Rain = 0
KMC5 050335Z 15004KT 23/18 A3004 RMK A01 T02290177  RH  073%=      5-min Rain = 0
KMC5 050336Z 15004KT 23/18 A3004 RMK A01 T02290177  RH  073%=      5-min Rain = 0
KMC5 050337Z 16004KT 23/18 A3004 RMK A01 T02290177  RH  072%=      5-min Rain = 0
KMC5 050338Z 16004KT 23/18 A3004 RMK A01 T02290177  RH  072%=      5-min Rain = 0
KMC5 050339Z 17004KT 23/18 A3004 RMK A01 T02300178  RH  073%=      5-min Rain = 0
KMC5 050340Z 17003KT 23/18 A3004 RMK A01 T02290177  RH  073%=      5-min Rain = 0
KMC5 050341Z 17004KT 23/18 A3004 RMK A01 T02290178  RH  073%=      5-min Rain = 0
KMC5 050342Z 17004KT 23/18 A3004 RMK A01 T02290178  RH  073%=      5-min Rain = 0
KMC5 050343Z 17004KT 23/18 A3004 RMK A01 T02290178  RH  073%=      5-min Rain = 0
KMC5 050344Z 17005KT 23/18 A3004 RMK A01 T02290178  RH  073%=      5-min Rain = 0
KMC5 050345Z 17004KT 23/18 A3004 RMK A01 T02290178  RH  073%=      5-min Rain = 0
KMC5 050346Z 17005KT 23/18 A3004 RMK A01 T02290177  RH  072%=      5-min Rain = 0
KMC5 050347Z 17005KT 23/18 A3004 RMK A01 T02300177  RH  072%=      5-min Rain = 0
KMC5 050348Z 17005KT 23/18 A3004 RMK A01 T02300177  RH  072%=      5-min Rain = 0
KMC5 050349Z 17004KT 23/18 A3004 RMK A01 T02300177  RH  072%=      5-min Rain = 0
KMC5 050350Z 17004KT 23/18 A3004 RMK A01 T02300177  RH  072%=      5-min Rain = 0
KMC5 050351Z 17004KT 23/18 A3004 RMK A01 T02300177  RH  072%=      5-min Rain = 0
KMC5 050352Z 17004KT 23/18 A3004 RMK A01 T02300176  RH  072%=      5-min Rain = 0
KMC5 050353Z 17004KT 23/18 A3004 RMK A01 T02300176  RH  072%=      5-min Rain = 0
KMC5 050354Z 17004KT 23/18 A3004 RMK A01 T02300176  RH  071%=      5-min Rain = 0
KMC5 050355Z 17004KT 23/18 A3004 RMK A01 T02310175  RH  071%=      5-min Rain = 0
KMC5 050356Z 17004KT 23/18 A3004 RMK A01 T02310175  RH  071%=      5-min Rain = 0
KMC5 050357Z 17004KT 23/17 A3004 RMK A01 T02310174  RH  070%=      5-min Rain = 0
KMC5 050358Z 18003KT 23/18 A3004 RMK A01 T02320175  RH  070%=      5-min Rain = 0
KMC5 050359Z 17004KT 23/18 A3004 RMK A01 T02320175  RH  070%=      5-min Rain = 0
KMC5 050400Z 17003KT 23/17 A3004 RMK A01 T02320174  RH  070%=      5-min Rain = 0
KMC5 050401Z 18003KT 23/18 A3004 RMK A01 T02320175  RH  070%=      5-min Rain = 0
KMC5 050402Z 18004KT 23/18 A3004 RMK A01 T02320176  RH  070%=      5-min Rain = 0
KMC5 050403Z 18004KT 23/18 A3004 RMK A01 T02320175  RH  070%=      5-min Rain = 0
KMC5 050404Z 18004KT 23/18 A3004 RMK A01 T02330176  RH  070%=      5-min Rain = 0
KMC5 050405Z 19003KT 23/18 A3005 RMK A01 T02320176  RH  071%=      5-min Rain = 0
KMC5 050406Z 20003KT 23/18 A3005 RMK A01 T02310176  RH  071%=      5-min Rain = 0
KMC5 050407Z 21003KT 23/18 A3005 RMK A01 T02300176  RH  071%=      5-min Rain = 0
KMC5 050408Z 21003KT 23/18 A3005 RMK A01 T02300176  RH  072%=      5-min Rain = 0
KMC5 050409Z 21004KT 23/18 A3005 RMK A01 T02300176  RH  072%=      5-min Rain = 0
KMC5 050410Z 21004KT 23/18 A3005 RMK A01 T02300175  RH  071%=      5-min Rain = 0
KMC5 050411Z 21004KT 23/18 A3005 RMK A01 T02300176  RH  071%=      5-min Rain = 0
KMC5 050412Z 21004KT 23/18 A3005 RMK A01 T02300176  RH  071%=      5-min Rain = 0
KMC5 050413Z 21004KT 23/18 A3005 RMK A01 T02290176  RH  072%=      5-min Rain = 0
KMC5 050414Z 21005KT 23/18 A3005 RMK A01 T02290176  RH  072%=      5-min Rain = 0
KMC5 050415Z 22005KT 23/18 A3005 RMK A01 T02280177  RH  073%=      5-min Rain = 0
KMC5 050416Z 22005KT 23/18 A3005 RMK A01 T02260176  RH  073%=      5-min Rain = 0
KMC5 050417Z 22005KT 23/18 A3005 RMK A01 T02260177  RH  074%=      5-min Rain = 0
KMC5 050418Z 22005KT 23/18 A3005 RMK A01 T02250176  RH  074%=      5-min Rain = 0
KMC5 050419Z 22005KT 22/18 A3005 RMK A01 T02240176  RH  074%=      5-min Rain = 0
KMC5 050420Z 22005KT 22/18 A3005 RMK A01 T02240177  RH  074%=      5-min Rain = 0
KMC5 050421Z 22005KT 22/18 A3005 RMK A01 T02240177  RH  075%=      5-min Rain = 0
KMC5 050422Z 22005KT 22/18 A3005 RMK A01 T02240177  RH  075%=      5-min Rain = 0
KMC5 050423Z 23004KT 22/18 A3005 RMK A01 T02240177  RH  075%=      5-min Rain = 0
KMC5 050424Z 23005KT 22/18 A3005 RMK A01 T02230177  RH  075%=      5-min Rain = 0
KMC5 050425Z 23005KT 22/18 A3005 RMK A01 T02230177  RH  075%=      5-min Rain = 0
KMC5 050426Z 23005KT 22/18 A3005 RMK A01 T02230177  RH  075%=      5-min Rain = 0
KMC5 050427Z 22005KT 22/18 A3005 RMK A01 T02220177  RH  076%=      5-min Rain = 0
KMC5 050428Z 23005KT 22/18 A3005 RMK A01 T02220178  RH  076%=      5-min Rain = 0
KMC5 050429Z 23005KT 22/18 A3005 RMK A01 T02220178  RH  076%=      5-min Rain = 0
KMC5 050430Z 23004KT 22/18 A3005 RMK A01 T02220178  RH  076%=      5-min Rain = 0
KMC5 050431Z 23005KT 22/18 A3005 RMK A01 T02220178  RH  076%=      5-min Rain = 0
KMC5 050432Z 23005KT 22/18 A3005 RMK A01 T02210178  RH  076%=      5-min Rain = 0
KMC5 050433Z 23005KT 22/18 A3005 RMK A01 T02210178  RH  077%=      5-min Rain = 0
KMC5 050434Z 24005KT 22/18 A3005 RMK A01 T02220179  RH  077%=      5-min Rain = 0
KMC5 050435Z 24005KT 22/18 A3005 RMK A01 T02210179  RH  077%=      5-min Rain = 0
KMC5 050436Z 25005KT 22/18 A3005 RMK A01 T02210179  RH  077%=      5-min Rain = 0
KMC5 050437Z 24004KT 22/18 A3005 RMK A01 T02210179  RH  077%=      5-min Rain = 0
KMC5 050438Z 24004KT 22/18 A3005 RMK A01 T02220179  RH  077%=      5-min Rain = 0
KMC5 050439Z 24005KT 22/18 A3005 RMK A01 T02220179  RH  077%=      5-min Rain = 0
KMC5 050440Z 25004KT 22/18 A3005 RMK A01 T02220179  RH  077%=      5-min Rain = 0
KMC5 050441Z 25004KT 22/18 A3005 RMK A01 T02220180  RH  077%=      5-min Rain = 0
KMC5 050442Z 25004KT 22/18 A3005 RMK A01 T02220180  RH  077%=      5-min Rain = 0
KMC5 050443Z 26004KT 22/18 A3005 RMK A01 T02210180  RH  077%=      5-min Rain = 0
KMC5 050444Z 26004KT 22/18 A3005 RMK A01 T02210180  RH  078%=      5-min Rain = 0
KMC5 050445Z 26004KT 22/18 A3005 RMK A01 T02210180  RH  078%=      5-min Rain = 0
KMC5 050446Z 26004KT 22/18 A3005 RMK A01 T02210180  RH  078%=      5-min Rain = 0
KMC5 050447Z 25004KT 22/18 A3005 RMK A01 T02200179  RH  078%=      5-min Rain = 0
KMC5 050448Z 25004KT 22/18 A3005 RMK A01 T02210180  RH  077%=      5-min Rain = 0
KMC5 050449Z 25004KT 22/18 A3005 RMK A01 T02200179  RH  077%=      5-min Rain = 0
KMC5 050450Z 24004KT 22/18 A3005 RMK A01 T02200180  RH  078%=      5-min Rain = 0
KMC5 050451Z 24005KT 22/18 A3005 RMK A01 T02200180  RH  078%=      5-min Rain = 0
KMC5 050452Z 25005KT 22/18 A3005 RMK A01 T02190180  RH  078%=      5-min Rain = 0
KMC5 050453Z 26006KT 22/18 A3005 RMK A01 T02180179  RH  079%=      5-min Rain = 0
KMC5 050454Z 26005KT 22/18 A3005 RMK A01 T02170180  RH  079%=      5-min Rain = 0
KMC5 050455Z 26005KT 22/18 A3005 RMK A01 T02170180  RH  079%=      5-min Rain = 0
KMC5 050456Z 26005KT 22/18 A3005 RMK A01 T02170180  RH  079%=      5-min Rain = 0
KMC5 050457Z 26005KT 22/18 A3005 RMK A01 T02170180  RH  079%=      5-min Rain = 0
KMC5 050458Z 27005KT 22/18 A3005 RMK A01 T02180180  RH  079%=      5-min Rain = 0
KMC5 050459Z 27005KT 22/18 A3005 RMK A01 T02180180  RH  079%=      5-min Rain = 0

Page generated in 0.1404 seconds.